<?xml version="1.0" encoding="UTF-8" standalone="no" ?><gpx xmlns="http://www.topografix.com/GPX/1/1" xmlns:gpxx="http://www.garmin.com/xmlschemas/GpxExtensions/v3" xmlns:wptx1="http://www.garmin.com/xmlschemas/WaypointExtension/v1" xmlns:gpxtpx="http://www.garmin.com/xmlschemas/TrackPointExtension/v1" creator="Dakota 20" version="1.1" xmlns:xsi="http://www.w3.org/2001/XMLSchema-instance" xsi:schemaLocation="http://www.topografix.com/GPX/1/1 http://www.topografix.com/GPX/1/1/gpx.xsd http://www.garmin.com/xmlschemas/GpxExtensions/v3 http://www8.garmin.com/xmlschemas/GpxExtensionsv3.xsd http://www.garmin.com/xmlschemas/WaypointExtension/v1 http://www8.garmin.com/xmlschemas/WaypointExtensionv1.xsd http://www.garmin.com/xmlschemas/TrackPointExtension/v1 http://www.garmin.com/xmlschemas/TrackPointExtensionv1.xsd"><metadata><link href="http://www.garmin.com"><text>Garmin International</text></link><time>2015-07-23T20:41:48Z</time></metadata><trk><name>Current Track: 22 JUL 2015 10:07</name><extensions><gpxx:TrackExtension><gpxx:DisplayColor>Cyan</gpxx:DisplayColor></gpxx:TrackExtension></extensions><trkseg><trkpt lat="51.6924429964" lon="-2.3095278069"><ele>233.26</ele><time>2015-07-22T09:07:19Z</time></trkpt><trkpt lat="51.6924341116" lon="-2.3095376138"><ele>231.81</ele><time>2015-07-22T09:07:44Z</time></trkpt><trkpt lat="51.6924351174" lon="-2.3095703032"><ele>231.81</ele><time>2015-07-22T09:08:07Z</time></trkpt><trkpt lat="51.6923839878" lon="-2.3097366840"><ele>228.93</ele><time>2015-07-22T09:08:23Z</time></trkpt><trkpt lat="51.6923872568" lon="-2.3099445552"><ele>227.97</ele><time>2015-07-22T09:08:38Z</time></trkpt><trkpt lat="51.6923538968" lon="-2.3100551125"><ele>228.45</ele><time>2015-07-22T09:08:53Z</time></trkpt><trkpt lat="51.6923484486" lon="-2.3100515082"><ele>228.93</ele><time>2015-07-22T09:09:18Z</time></trkpt><trkpt lat="51.6923484486" lon="-2.3100494966"><ele>228.45</ele><time>2015-07-22T09:09:43Z</time></trkpt><trkpt lat="51.6923656315" lon="-2.3100414500"><ele>228.93</ele><time>2015-07-22T09:10:13Z</time></trkpt><trkpt lat="51.6923601832" lon="-2.3100232612"><ele>228.93</ele><time>2015-07-22T09:10:42Z</time></trkpt><trkpt lat="51.6923602670" lon="-2.3100170586"><ele>228.93</ele><time>2015-07-22T09:11:13Z</time></trkpt><trkpt lat="51.6923478618" lon="-2.3099908233"><ele>228.93</ele><time>2015-07-22T09:11:41Z</time></trkpt><trkpt lat="51.6923946328" lon="-2.3099319823"><ele>226.53</ele><time>2015-07-22T09:11:57Z</time></trkpt><trkpt lat="51.6925514583" lon="-2.3099091835"><ele>226.05</ele><time>2015-07-22T09:12:15Z</time></trkpt><trkpt lat="51.6926103830" lon="-2.3099093512"><ele>225.09</ele><time>2015-07-22T09:12:38Z</time></trkpt><trkpt lat="51.6927983891" lon="-2.3099891469"><ele>222.68</ele><time>2015-07-22T09:13:00Z</time></trkpt><trkpt lat="51.6928325873" lon="-2.3099755682"><ele>220.76</ele><time>2015-07-22T09:13:09Z</time></trkpt><trkpt lat="51.6929131374" lon="-2.3099971935"><ele>218.84</ele><time>2015-07-22T09:13:21Z</time></trkpt><trkpt lat="51.6931190807" lon="-2.3101958446"><ele>216.91</ele><time>2015-07-22T09:13:44Z</time></trkpt><trkpt lat="51.6931635886" lon="-2.3102279473"><ele>215.95</ele><time>2015-07-22T09:13:48Z</time></trkpt><trkpt lat="51.6932108626" lon="-2.3102591280"><ele>215.47</ele><time>2015-07-22T09:13:54Z</time></trkpt><trkpt lat="51.6932766605" lon="-2.3102761433"><ele>212.11</ele><time>2015-07-22T09:14:00Z</time></trkpt><trkpt lat="51.6932772473" lon="-2.3102751374"><ele>216.43</ele><time>2015-07-22T09:14:01Z</time></trkpt><trkpt lat="51.6932781693" lon="-2.3102716170"><ele>214.99</ele><time>2015-07-22T09:14:03Z</time></trkpt><trkpt lat="51.6932811029" lon="-2.3102649953"><ele>218.36</ele><time>2015-07-22T09:14:06Z</time></trkpt><trkpt lat="51.6932826117" lon="-2.3102628160"><ele>214.03</ele><time>2015-07-22T09:14:08Z</time></trkpt><trkpt lat="51.6932834499" lon="-2.3102622293"><ele>218.36</ele><time>2015-07-22T09:14:09Z</time></trkpt><trkpt lat="51.6932843719" lon="-2.3102618102"><ele>214.51</ele><time>2015-07-22T09:14:10Z</time></trkpt><trkpt lat="51.6932852939" lon="-2.3102617264"><ele>218.36</ele><time>2015-07-22T09:14:11Z</time></trkpt><trkpt lat="51.6932953522" lon="-2.3102616426"><ele>217.88</ele><time>2015-07-22T09:14:16Z</time></trkpt><trkpt lat="51.6934525128" lon="-2.3101948388"><ele>220.76</ele><time>2015-07-22T09:14:25Z</time></trkpt><trkpt lat="51.6934681032" lon="-2.3101837747"><ele>217.40</ele><time>2015-07-22T09:14:26Z</time></trkpt><trkpt lat="51.6937087476" lon="-2.3101258557"><ele>219.80</ele><time>2015-07-22T09:14:48Z</time></trkpt><trkpt lat="51.6937146988" lon="-2.3101202399"><ele>219.32</ele><time>2015-07-22T09:14:59Z</time></trkpt><trkpt lat="51.6937416885" lon="-2.3101574555"><ele>223.16</ele><time>2015-07-22T09:15:12Z</time></trkpt><trkpt lat="51.6937421914" lon="-2.3101575393"><ele>217.88</ele><time>2015-07-22T09:15:13Z</time></trkpt><trkpt lat="51.6937428620" lon="-2.3101572879"><ele>221.24</ele><time>2015-07-22T09:15:14Z</time></trkpt><trkpt lat="51.6937853582" lon="-2.3102533445"><ele>220.76</ele><time>2015-07-22T09:15:26Z</time></trkpt><trkpt lat="51.6938279383" lon="-2.3103348166"><ele>223.16</ele><time>2015-07-22T09:15:28Z</time></trkpt><trkpt lat="51.6939230729" lon="-2.3105215654"><ele>223.64</ele><time>2015-07-22T09:15:44Z</time></trkpt><trkpt lat="51.6939548403" lon="-2.3105181288"><ele>221.72</ele><time>2015-07-22T09:15:49Z</time></trkpt><trkpt lat="51.6939582769" lon="-2.3105207272"><ele>220.76</ele><time>2015-07-22T09:15:50Z</time></trkpt><trkpt lat="51.6939578578" lon="-2.3105094954"><ele>224.61</ele><time>2015-07-22T09:15:51Z</time></trkpt><trkpt lat="51.6939572711" lon="-2.3105070647"><ele>227.49</ele><time>2015-07-22T09:15:52Z</time></trkpt><trkpt lat="51.6939572711" lon="-2.3105001915"><ele>222.68</ele><time>2015-07-22T09:15:53Z</time></trkpt><trkpt lat="51.6940166149" lon="-2.3104172107"><ele>222.68</ele><time>2015-07-22T09:16:07Z</time></trkpt><trkpt lat="51.6940214764" lon="-2.3104138579"><ele>225.09</ele><time>2015-07-22T09:16:09Z</time></trkpt><trkpt lat="51.6940752883" lon="-2.3103447910"><ele>225.09</ele><time>2015-07-22T09:16:14Z</time></trkpt><trkpt lat="51.6941526532" lon="-2.3102784902"><ele>225.57</ele><time>2015-07-22T09:16:34Z</time></trkpt><trkpt lat="51.6941582691" lon="-2.3103162088"><ele>222.20</ele><time>2015-07-22T09:16:55Z</time></trkpt><trkpt lat="51.6941591911" lon="-2.3103169631"><ele>226.05</ele><time>2015-07-22T09:16:58Z</time></trkpt><trkpt lat="51.6943619493" lon="-2.3103447910"><ele>226.53</ele><time>2015-07-22T09:17:20Z</time></trkpt><trkpt lat="51.6945039388" lon="-2.3102801666"><ele>224.61</ele><time>2015-07-22T09:17:41Z</time></trkpt><trkpt lat="51.6946842335" lon="-2.3103687633"><ele>222.68</ele><time>2015-07-22T09:18:00Z</time></trkpt><trkpt lat="51.6947798710" lon="-2.3103584535"><ele>219.80</ele><time>2015-07-22T09:18:23Z</time></trkpt><trkpt lat="51.6949706431" lon="-2.3103639018"><ele>216.91</ele><time>2015-07-22T09:18:44Z</time></trkpt><trkpt lat="51.6951320786" lon="-2.3103566095"><ele>213.55</ele><time>2015-07-22T09:19:03Z</time></trkpt><trkpt lat="51.6951420531" lon="-2.3103675898"><ele>213.55</ele><time>2015-07-22T09:19:04Z</time></trkpt><trkpt lat="51.6953714658" lon="-2.3103020433"><ele>214.03</ele><time>2015-07-22T09:19:25Z</time></trkpt><trkpt lat="51.6955305543" lon="-2.3102583736"><ele>214.03</ele><time>2015-07-22T09:19:48Z</time></trkpt><trkpt lat="51.6957311332" lon="-2.3102985229"><ele>214.99</ele><time>2015-07-22T09:20:10Z</time></trkpt><trkpt lat="51.6957323905" lon="-2.3102964275"><ele>211.63</ele><time>2015-07-22T09:20:12Z</time></trkpt><trkpt lat="51.6957329772" lon="-2.3102956731"><ele>215.47</ele><time>2015-07-22T09:20:13Z</time></trkpt><trkpt lat="51.6957352404" lon="-2.3102923203"><ele>215.47</ele><time>2015-07-22T09:20:17Z</time></trkpt><trkpt lat="51.6959043033" lon="-2.3101658374"><ele>215.47</ele><time>2015-07-22T09:20:29Z</time></trkpt><trkpt lat="51.6962979175" lon="-2.3099875543"><ele>214.99</ele><time>2015-07-22T09:20:53Z</time></trkpt><trkpt lat="51.6964067146" lon="-2.3098440561"><ele>214.51</ele><time>2015-07-22T09:21:16Z</time></trkpt><trkpt lat="51.6964246519" lon="-2.3098018952"><ele>215.47</ele><time>2015-07-22T09:21:40Z</time></trkpt><trkpt lat="51.6964170244" lon="-2.3097991291"><ele>214.03</ele><time>2015-07-22T09:21:49Z</time></trkpt><trkpt lat="51.6964154318" lon="-2.3098000512"><ele>215.47</ele><time>2015-07-22T09:21:50Z</time></trkpt><trkpt lat="51.6964530665" lon="-2.3098300584"><ele>212.11</ele><time>2015-07-22T09:22:00Z</time></trkpt><trkpt lat="51.6964593530" lon="-2.3098365963"><ele>215.47</ele><time>2015-07-22T09:22:01Z</time></trkpt><trkpt lat="51.6964931320" lon="-2.3098719679"><ele>219.32</ele><time>2015-07-22T09:22:06Z</time></trkpt><trkpt lat="51.6964995023" lon="-2.3098785896"><ele>215.95</ele><time>2015-07-22T09:22:07Z</time></trkpt><trkpt lat="51.6965545714" lon="-2.3098619096"><ele>215.47</ele><time>2015-07-22T09:22:30Z</time></trkpt><trkpt lat="51.6965869255" lon="-2.3098102771"><ele>212.59</ele><time>2015-07-22T09:22:35Z</time></trkpt><trkpt lat="51.6965902783" lon="-2.3097956087"><ele>217.40</ele><time>2015-07-22T09:22:36Z</time></trkpt><trkpt lat="51.6965946369" lon="-2.3097755760"><ele>214.99</ele><time>2015-07-22T09:22:37Z</time></trkpt><trkpt lat="51.6965896077" lon="-2.3096652701"><ele>214.99</ele><time>2015-07-22T09:22:55Z</time></trkpt><trkpt lat="51.6965994146" lon="-2.3096483387"><ele>215.95</ele><time>2015-07-22T09:23:09Z</time></trkpt><trkpt lat="51.6965959780" lon="-2.3096481711"><ele>215.47</ele><time>2015-07-22T09:23:11Z</time></trkpt><trkpt lat="51.6965601034" lon="-2.3095821217"><ele>214.99</ele><time>2015-07-22T09:23:31Z</time></trkpt><trkpt lat="51.6966108140" lon="-2.3094863165"><ele>213.55</ele><time>2015-07-22T09:23:46Z</time></trkpt><trkpt lat="51.6966942139" lon="-2.3093828838"><ele>211.63</ele><time>2015-07-22T09:24:01Z</time></trkpt><trkpt lat="51.6966997460" lon="-2.3093708977"><ele>209.22</ele><time>2015-07-22T09:24:02Z</time></trkpt><trkpt lat="51.6967022605" lon="-2.3093638569"><ele>211.15</ele><time>2015-07-22T09:24:03Z</time></trkpt><trkpt lat="51.6967086308" lon="-2.3093498591"><ele>212.59</ele><time>2015-07-22T09:24:04Z</time></trkpt><trkpt lat="51.6968275700" lon="-2.3091548122"><ele>210.67</ele><time>2015-07-22T09:24:20Z</time></trkpt><trkpt lat="51.6968866624" lon="-2.3090131581"><ele>211.15</ele><time>2015-07-22T09:24:39Z</time></trkpt><trkpt lat="51.6969428211" lon="-2.3089859169"><ele>211.15</ele><time>2015-07-22T09:24:55Z</time></trkpt><trkpt lat="51.6969987284" lon="-2.3088292591"><ele>209.70</ele><time>2015-07-22T09:25:07Z</time></trkpt><trkpt lat="51.6970950365" lon="-2.3086490482"><ele>208.74</ele><time>2015-07-22T09:25:23Z</time></trkpt><trkpt lat="51.6971039213" lon="-2.3086300213"><ele>211.15</ele><time>2015-07-22T09:25:24Z</time></trkpt><trkpt lat="51.6971036699" lon="-2.3086246569"><ele>209.70</ele><time>2015-07-22T09:25:25Z</time></trkpt><trkpt lat="51.6971368622" lon="-2.3085861001"><ele>207.30</ele><time>2015-07-22T09:25:28Z</time></trkpt><trkpt lat="51.6971579008" lon="-2.3085440230"><ele>207.30</ele><time>2015-07-22T09:25:32Z</time></trkpt><trkpt lat="51.6971755866" lon="-2.3085146025"><ele>209.70</ele><time>2015-07-22T09:25:34Z</time></trkpt><trkpt lat="51.6971968766" lon="-2.3084789794"><ele>205.86</ele><time>2015-07-22T09:25:36Z</time></trkpt><trkpt lat="51.6971968766" lon="-2.3084752914"><ele>213.07</ele><time>2015-07-22T09:25:37Z</time></trkpt><trkpt lat="51.6972231120" lon="-2.3084264249"><ele>212.59</ele><time>2015-07-22T09:25:41Z</time></trkpt><trkpt lat="51.6972309910" lon="-2.3084130138"><ele>212.59</ele><time>2015-07-22T09:25:42Z</time></trkpt><trkpt lat="51.6973201744" lon="-2.3082619719"><ele>208.74</ele><time>2015-07-22T09:25:52Z</time></trkpt><trkpt lat="51.6973208450" lon="-2.3082571104"><ele>212.59</ele><time>2015-07-22T09:25:53Z</time></trkpt><trkpt lat="51.6973307356" lon="-2.3082429450"><ele>213.55</ele><time>2015-07-22T09:25:54Z</time></trkpt><trkpt lat="51.6973615810" lon="-2.3082004488"><ele>209.70</ele><time>2015-07-22T09:25:57Z</time></trkpt><trkpt lat="51.6973732319" lon="-2.3081886303"><ele>209.70</ele><time>2015-07-22T09:25:58Z</time></trkpt><trkpt lat="51.6973838769" lon="-2.3081762251"><ele>212.11</ele><time>2015-07-22T09:25:59Z</time></trkpt><trkpt lat="51.6974741500" lon="-2.3080482334"><ele>214.99</ele><time>2015-07-22T09:26:07Z</time></trkpt><trkpt lat="51.6975755710" lon="-2.3079361673"><ele>211.63</ele><time>2015-07-22T09:26:17Z</time></trkpt><trkpt lat="51.6977891419" lon="-2.3078015540"><ele>209.22</ele><time>2015-07-22T09:26:37Z</time></trkpt><trkpt lat="51.6979520861" lon="-2.3077629972"><ele>205.86</ele><time>2015-07-22T09:26:48Z</time></trkpt><trkpt lat="51.6981723625" lon="-2.3076842912"><ele>203.94</ele><time>2015-07-22T09:27:03Z</time></trkpt><trkpt lat="51.6981877014" lon="-2.3076766636"><ele>207.30</ele><time>2015-07-22T09:27:04Z</time></trkpt><trkpt lat="51.6982942354" lon="-2.3076135479"><ele>203.94</ele><time>2015-07-22T09:27:15Z</time></trkpt><trkpt lat="51.6983120888" lon="-2.3076035734"><ele>202.49</ele><time>2015-07-22T09:27:16Z</time></trkpt><trkpt lat="51.6983146872" lon="-2.3076002207"><ele>204.42</ele><time>2015-07-22T09:27:17Z</time></trkpt><trkpt lat="51.6983311996" lon="-2.3075916711"><ele>204.42</ele><time>2015-07-22T09:27:18Z</time></trkpt><trkpt lat="51.6985600255" lon="-2.3074495979"><ele>204.42</ele><time>2015-07-22T09:27:43Z</time></trkpt><trkpt lat="51.6987350397" lon="-2.3074552137"><ele>203.46</ele><time>2015-07-22T09:28:00Z</time></trkpt><trkpt lat="51.6990041826" lon="-2.3073941097"><ele>201.53</ele><time>2015-07-22T09:28:21Z</time></trkpt><trkpt lat="51.6992374510" lon="-2.3073165771"><ele>199.61</ele><time>2015-07-22T09:28:44Z</time></trkpt><trkpt lat="51.6992884967" lon="-2.3072200175"><ele>199.13</ele><time>2015-07-22T09:29:04Z</time></trkpt><trkpt lat="51.6994057596" lon="-2.3070736695"><ele>196.73</ele><time>2015-07-22T09:29:23Z</time></trkpt><trkpt lat="51.6996012256" lon="-2.3068210389"><ele>193.36</ele><time>2015-07-22T09:29:39Z</time></trkpt><trkpt lat="51.6997988708" lon="-2.3064803984"><ele>190.48</ele><time>2015-07-22T09:29:57Z</time></trkpt><trkpt lat="51.6999333166" lon="-2.3063284345"><ele>191.92</ele><time>2015-07-22T09:30:18Z</time></trkpt><trkpt lat="51.7000269424" lon="-2.3062651511"><ele>191.92</ele><time>2015-07-22T09:30:40Z</time></trkpt><trkpt lat="51.6999467276" lon="-2.3061458766"><ele>190.96</ele><time>2015-07-22T09:31:02Z</time></trkpt><trkpt lat="51.6999043152" lon="-2.3058341537"><ele>191.92</ele><time>2015-07-22T09:31:21Z</time></trkpt><trkpt lat="51.6997705400" lon="-2.3054842930"><ele>191.92</ele><time>2015-07-22T09:31:39Z</time></trkpt><trkpt lat="51.6998839471" lon="-2.3053516075"><ele>191.44</ele><time>2015-07-22T09:31:56Z</time></trkpt><trkpt lat="51.6998926643" lon="-2.3050640244"><ele>190.96</ele><time>2015-07-22T09:32:13Z</time></trkpt><trkpt lat="51.7000395153" lon="-2.3048165068"><ele>190.96</ele><time>2015-07-22T09:32:30Z</time></trkpt><trkpt lat="51.7000530940" lon="-2.3045417480"><ele>189.52</ele><time>2015-07-22T09:32:49Z</time></trkpt><trkpt lat="51.7000268586" lon="-2.3044856731"><ele>191.92</ele><time>2015-07-22T09:32:52Z</time></trkpt><trkpt lat="51.6999886371" lon="-2.3044197913"><ele>191.92</ele><time>2015-07-22T09:32:56Z</time></trkpt><trkpt lat="51.6999658383" lon="-2.3041759618"><ele>191.44</ele><time>2015-07-22T09:33:17Z</time></trkpt><trkpt lat="51.6999745555" lon="-2.3038350698"><ele>191.44</ele><time>2015-07-22T09:33:37Z</time></trkpt><trkpt lat="51.6999340709" lon="-2.3034459818"><ele>190.96</ele><time>2015-07-22T09:33:57Z</time></trkpt><trkpt lat="51.6999287903" lon="-2.3034014739"><ele>192.88</ele><time>2015-07-22T09:34:01Z</time></trkpt><trkpt lat="51.6999336518" lon="-2.3033110332"><ele>193.36</ele><time>2015-07-22T09:34:07Z</time></trkpt><trkpt lat="51.6999021359" lon="-2.3031818680"><ele>192.40</ele><time>2015-07-22T09:34:15Z</time></trkpt><trkpt lat="51.7000919022" lon="-2.3028261401"><ele>192.40</ele><time>2015-07-22T09:34:38Z</time></trkpt><trkpt lat="51.7001473065" lon="-2.3025527224"><ele>189.04</ele><time>2015-07-22T09:34:58Z</time></trkpt><trkpt lat="51.7001991905" lon="-2.3023428395"><ele>186.15</ele><time>2015-07-22T09:35:18Z</time></trkpt><trkpt lat="51.7002524994" lon="-2.3021458648"><ele>182.31</ele><time>2015-07-22T09:35:35Z</time></trkpt><trkpt lat="51.7002742924" lon="-2.3020948190"><ele>185.67</ele><time>2015-07-22T09:35:40Z</time></trkpt><trkpt lat="51.7003191356" lon="-2.3021360580"><ele>182.31</ele><time>2015-07-22T09:35:56Z</time></trkpt><trkpt lat="51.7003194708" lon="-2.3021352198"><ele>185.67</ele><time>2015-07-22T09:35:57Z</time></trkpt><trkpt lat="51.7003654875" lon="-2.3020943999"><ele>185.19</ele><time>2015-07-22T09:36:20Z</time></trkpt><trkpt lat="51.7004660703" lon="-2.3021746986"><ele>185.19</ele><time>2015-07-22T09:36:47Z</time></trkpt><trkpt lat="51.7005165294" lon="-2.3022239842"><ele>185.19</ele><time>2015-07-22T09:37:03Z</time></trkpt></trkseg><trkseg><trkpt lat="51.7008699104" lon="-2.3013445549"><ele>191.44</ele><time>2015-07-22T09:38:38Z</time></trkpt><trkpt lat="51.7008822318" lon="-2.3013422079"><ele>187.11</ele><time>2015-07-22T09:38:39Z</time></trkpt><trkpt lat="51.7008947209" lon="-2.3013432138"><ele>190.48</ele><time>2015-07-22T09:38:40Z</time></trkpt><trkpt lat="51.7009092215" lon="-2.3013454769"><ele>191.92</ele><time>2015-07-22T09:38:41Z</time></trkpt><trkpt lat="51.7009730078" lon="-2.3013256118"><ele>193.36</ele><time>2015-07-22T09:38:48Z</time></trkpt><trkpt lat="51.7009753548" lon="-2.3013163917"><ele>189.52</ele><time>2015-07-22T09:38:49Z</time></trkpt><trkpt lat="51.7009833176" lon="-2.3012857977"><ele>193.84</ele><time>2015-07-22T09:38:53Z</time></trkpt><trkpt lat="51.7009553220" lon="-2.3012955207"><ele>190.48</ele><time>2015-07-22T09:38:54Z</time></trkpt><trkpt lat="51.7009254824" lon="-2.3013049923"><ele>195.28</ele><time>2015-07-22T09:38:56Z</time></trkpt><trkpt lat="51.7009160109" lon="-2.3013074230"><ele>191.44</ele><time>2015-07-22T09:38:57Z</time></trkpt><trkpt lat="51.7008821480" lon="-2.3013011366"><ele>194.80</ele><time>2015-07-22T09:39:02Z</time></trkpt><trkpt lat="51.7008446809" lon="-2.3012645077"><ele>198.17</ele><time>2015-07-22T09:39:14Z</time></trkpt><trkpt lat="51.7008422501" lon="-2.3012596462"><ele>197.69</ele><time>2015-07-22T09:39:15Z</time></trkpt><trkpt lat="51.7008386459" lon="-2.3012576345"><ele>193.36</ele><time>2015-07-22T09:39:16Z</time></trkpt><trkpt lat="51.7008328624" lon="-2.3012559582"><ele>196.73</ele><time>2015-07-22T09:39:17Z</time></trkpt><trkpt lat="51.7008158471" lon="-2.3011819459"><ele>193.36</ele><time>2015-07-22T09:39:26Z</time></trkpt><trkpt lat="51.7008175235" lon="-2.3011624999"><ele>198.17</ele><time>2015-07-22T09:39:27Z</time></trkpt><trkpt lat="51.7008063756" lon="-2.3011279665"><ele>201.05</ele><time>2015-07-22T09:39:33Z</time></trkpt><trkpt lat="51.7008021846" lon="-2.3011207581"><ele>195.77</ele><time>2015-07-22T09:39:34Z</time></trkpt><trkpt lat="51.7007998377" lon="-2.3011137173"><ele>199.13</ele><time>2015-07-22T09:39:35Z</time></trkpt><trkpt lat="51.7007663101" lon="-2.3010862246"><ele>199.61</ele><time>2015-07-22T09:39:43Z</time></trkpt><trkpt lat="51.7007342912" lon="-2.3010290600"><ele>202.98</ele><time>2015-07-22T09:39:53Z</time></trkpt><trkpt lat="51.7007311061" lon="-2.3010179959"><ele>199.61</ele><time>2015-07-22T09:39:55Z</time></trkpt><trkpt lat="51.7007338721" lon="-2.3010021541"><ele>204.42</ele><time>2015-07-22T09:39:57Z</time></trkpt><trkpt lat="51.7007355485" lon="-2.3009926826"><ele>200.57</ele><time>2015-07-22T09:39:58Z</time></trkpt><trkpt lat="51.7007373925" lon="-2.3009728175"><ele>205.38</ele><time>2015-07-22T09:40:00Z</time></trkpt><trkpt lat="51.7007354647" lon="-2.3009617534"><ele>200.57</ele><time>2015-07-22T09:40:01Z</time></trkpt><trkpt lat="51.7007318605" lon="-2.3009407148"><ele>204.90</ele><time>2015-07-22T09:40:03Z</time></trkpt><trkpt lat="51.7007307708" lon="-2.3009183351"><ele>200.57</ele><time>2015-07-22T09:40:05Z</time></trkpt><trkpt lat="51.7007295974" lon="-2.3009063490"><ele>204.42</ele><time>2015-07-22T09:40:06Z</time></trkpt><trkpt lat="51.7007518094" lon="-2.3007813748"><ele>207.78</ele><time>2015-07-22T09:40:17Z</time></trkpt><trkpt lat="51.7007535696" lon="-2.3007685505"><ele>203.46</ele><time>2015-07-22T09:40:18Z</time></trkpt><trkpt lat="51.7007580958" lon="-2.3007577378"><ele>206.82</ele><time>2015-07-22T09:40:19Z</time></trkpt><trkpt lat="51.7008259054" lon="-2.3006688897"><ele>209.70</ele><time>2015-07-22T09:40:33Z</time></trkpt><trkpt lat="51.7008315213" lon="-2.3006582446"><ele>204.90</ele><time>2015-07-22T09:40:34Z</time></trkpt><trkpt lat="51.7008362152" lon="-2.3006496951"><ele>208.74</ele><time>2015-07-22T09:40:35Z</time></trkpt><trkpt lat="51.7008441780" lon="-2.3006052710"><ele>209.22</ele><time>2015-07-22T09:40:40Z</time></trkpt><trkpt lat="51.7008494586" lon="-2.3005745932"><ele>212.59</ele><time>2015-07-22T09:40:45Z</time></trkpt><trkpt lat="51.7008504644" lon="-2.3005659599"><ele>208.74</ele><time>2015-07-22T09:40:46Z</time></trkpt><trkpt lat="51.7008510511" lon="-2.3005579971"><ele>209.70</ele><time>2015-07-22T09:40:47Z</time></trkpt><trkpt lat="51.7008600198" lon="-2.3005133215"><ele>213.55</ele><time>2015-07-22T09:40:53Z</time></trkpt><trkpt lat="51.7008601036" lon="-2.3005053587"><ele>209.22</ele><time>2015-07-22T09:40:54Z</time></trkpt><trkpt lat="51.7008601036" lon="-2.3005062807"><ele>213.55</ele><time>2015-07-22T09:40:57Z</time></trkpt><trkpt lat="51.7008613609" lon="-2.3005077895"><ele>212.11</ele><time>2015-07-22T09:40:58Z</time></trkpt><trkpt lat="51.7008599360" lon="-2.3004914448"><ele>213.55</ele><time>2015-07-22T09:41:19Z</time></trkpt><trkpt lat="51.7008865066" lon="-2.3004724178"><ele>215.47</ele><time>2015-07-22T09:41:40Z</time></trkpt><trkpt lat="51.7010270711" lon="-2.3003167659"><ele>211.15</ele><time>2015-07-22T09:41:55Z</time></trkpt><trkpt lat="51.7010452598" lon="-2.3002918717"><ele>214.99</ele><time>2015-07-22T09:41:56Z</time></trkpt><trkpt lat="51.7010285798" lon="-2.3002824839"><ele>218.84</ele><time>2015-07-22T09:42:09Z</time></trkpt><trkpt lat="51.7010286637" lon="-2.3002828192"><ele>218.36</ele><time>2015-07-22T09:42:10Z</time></trkpt><trkpt lat="51.7010286637" lon="-2.3002832383"><ele>214.03</ele><time>2015-07-22T09:42:11Z</time></trkpt><trkpt lat="51.7010375485" lon="-2.3002885189"><ele>217.40</ele><time>2015-07-22T09:42:12Z</time></trkpt><trkpt lat="51.7010996584" lon="-2.3002565000"><ele>219.32</ele><time>2015-07-22T09:42:24Z</time></trkpt><trkpt lat="51.7010999098" lon="-2.3002567515"><ele>214.51</ele><time>2015-07-22T09:42:25Z</time></trkpt><trkpt lat="51.7011002451" lon="-2.3002569191"><ele>219.32</ele><time>2015-07-22T09:42:26Z</time></trkpt><trkpt lat="51.7011005804" lon="-2.3002565838"><ele>225.57</ele><time>2015-07-22T09:42:27Z</time></trkpt><trkpt lat="51.7011009995" lon="-2.3002562486"><ele>219.80</ele><time>2015-07-22T09:42:28Z</time></trkpt><trkpt lat="51.7011320964" lon="-2.3001962341"><ele>223.16</ele><time>2015-07-22T09:42:36Z</time></trkpt><trkpt lat="51.7011403106" lon="-2.3001787160"><ele>218.36</ele><time>2015-07-22T09:42:37Z</time></trkpt><trkpt lat="51.7011500336" lon="-2.3001597729"><ele>217.88</ele><time>2015-07-22T09:42:38Z</time></trkpt><trkpt lat="51.7011603434" lon="-2.3001436796"><ele>221.72</ele><time>2015-07-22T09:42:39Z</time></trkpt><trkpt lat="51.7012507841" lon="-2.3000674881"><ele>225.09</ele><time>2015-07-22T09:42:48Z</time></trkpt><trkpt lat="51.7012547236" lon="-2.3000663985"><ele>224.12</ele><time>2015-07-22T09:42:49Z</time></trkpt><trkpt lat="51.7012543045" lon="-2.3000674043"><ele>219.32</ele><time>2015-07-22T09:42:52Z</time></trkpt><trkpt lat="51.7012541369" lon="-2.3000678234"><ele>223.64</ele><time>2015-07-22T09:42:53Z</time></trkpt><trkpt lat="51.7012760974" lon="-2.3000363912"><ele>227.97</ele><time>2015-07-22T09:43:06Z</time></trkpt><trkpt lat="51.7012700625" lon="-2.3000210524"><ele>224.61</ele><time>2015-07-22T09:43:07Z</time></trkpt><trkpt lat="51.7012702301" lon="-2.3000198789"><ele>227.49</ele><time>2015-07-22T09:43:09Z</time></trkpt><trkpt lat="51.7012707330" lon="-2.3000193760"><ele>226.53</ele><time>2015-07-22T09:43:10Z</time></trkpt><trkpt lat="51.7012989800" lon="-2.2999827471"><ele>229.89</ele><time>2015-07-22T09:43:15Z</time></trkpt><trkpt lat="51.7013167497" lon="-2.2999630496"><ele>224.61</ele><time>2015-07-22T09:43:16Z</time></trkpt><trkpt lat="51.7013398837" lon="-2.2999248281"><ele>229.41</ele><time>2015-07-22T09:43:18Z</time></trkpt><trkpt lat="51.7013855651" lon="-2.2998669092"><ele>226.53</ele><time>2015-07-22T09:43:24Z</time></trkpt><trkpt lat="51.7013909295" lon="-2.2998474631"><ele>230.85</ele><time>2015-07-22T09:43:27Z</time></trkpt><trkpt lat="51.7013911810" lon="-2.2998475470"><ele>227.49</ele><time>2015-07-22T09:43:28Z</time></trkpt><trkpt lat="51.7013923544" lon="-2.2998474631"><ele>229.41</ele><time>2015-07-22T09:43:31Z</time></trkpt><trkpt lat="51.7014142312" lon="-2.2997958306"><ele>228.93</ele><time>2015-07-22T09:43:37Z</time></trkpt><trkpt lat="51.7014294863" lon="-2.2997590341"><ele>230.37</ele><time>2015-07-22T09:43:39Z</time></trkpt><trkpt lat="51.7014563922" lon="-2.2997155320"><ele>234.70</ele><time>2015-07-22T09:43:49Z</time></trkpt><trkpt lat="51.7014605831" lon="-2.2997182142"><ele>230.37</ele><time>2015-07-22T09:43:53Z</time></trkpt><trkpt lat="51.7014735751" lon="-2.2997350618"><ele>234.70</ele><time>2015-07-22T09:43:55Z</time></trkpt><trkpt lat="51.7014820408" lon="-2.2997372411"><ele>231.33</ele><time>2015-07-22T09:43:56Z</time></trkpt><trkpt lat="51.7015074380" lon="-2.2997216508"><ele>235.18</ele><time>2015-07-22T09:44:00Z</time></trkpt><trkpt lat="51.7015078571" lon="-2.2997215670"><ele>231.33</ele><time>2015-07-22T09:44:01Z</time></trkpt><trkpt lat="51.7015086114" lon="-2.2997224052"><ele>234.22</ele><time>2015-07-22T09:44:04Z</time></trkpt><trkpt lat="51.7015138082" lon="-2.2997226566"><ele>239.02</ele><time>2015-07-22T09:44:12Z</time></trkpt><trkpt lat="51.7015148140" lon="-2.2997219022"><ele>233.26</ele><time>2015-07-22T09:44:13Z</time></trkpt><trkpt lat="51.7015169933" lon="-2.2997182980"><ele>236.62</ele><time>2015-07-22T09:44:16Z</time></trkpt><trkpt lat="51.7016249523" lon="-2.2995065711"><ele>238.54</ele><time>2015-07-22T09:44:29Z</time></trkpt><trkpt lat="51.7016604077" lon="-2.2994461376"><ele>235.18</ele><time>2015-07-22T09:44:34Z</time></trkpt><trkpt lat="51.7016641796" lon="-2.2994364146"><ele>239.99</ele><time>2015-07-22T09:44:35Z</time></trkpt><trkpt lat="51.7017501779" lon="-2.2993634082"><ele>242.39</ele><time>2015-07-22T09:44:54Z</time></trkpt><trkpt lat="51.7018888146" lon="-2.2992112767"><ele>244.79</ele><time>2015-07-22T09:45:13Z</time></trkpt><trkpt lat="51.7019311432" lon="-2.2991917469"><ele>241.43</ele><time>2015-07-22T09:45:18Z</time></trkpt><trkpt lat="51.7019421235" lon="-2.2991852928"><ele>241.91</ele><time>2015-07-22T09:45:19Z</time></trkpt><trkpt lat="51.7019602284" lon="-2.2991615720"><ele>245.75</ele><time>2015-07-22T09:45:21Z</time></trkpt><trkpt lat="51.7020349950" lon="-2.2990218457"><ele>245.27</ele><time>2015-07-22T09:45:38Z</time></trkpt><trkpt lat="51.7020516749" lon="-2.2990109492"><ele>246.72</ele><time>2015-07-22T09:45:40Z</time></trkpt><trkpt lat="51.7020776588" lon="-2.2990160622"><ele>245.27</ele><time>2015-07-22T09:45:57Z</time></trkpt><trkpt lat="51.7020970210" lon="-2.2990753222"><ele>244.79</ele><time>2015-07-22T09:46:07Z</time></trkpt><trkpt lat="51.7020647507" lon="-2.2991164774"><ele>245.27</ele><time>2015-07-22T09:46:27Z</time></trkpt><trkpt lat="51.7020551953" lon="-2.2991110291"><ele>244.31</ele><time>2015-07-22T09:46:54Z</time></trkpt><trkpt lat="51.7020522617" lon="-2.2991132922"><ele>244.31</ele><time>2015-07-22T09:47:15Z</time></trkpt><trkpt lat="51.7021534313" lon="-2.2990909964"><ele>243.83</ele><time>2015-07-22T09:47:32Z</time></trkpt><trkpt lat="51.7020852864" lon="-2.2990119550"><ele>245.75</ele><time>2015-07-22T09:47:48Z</time></trkpt><trkpt lat="51.7019645870" lon="-2.2991075926"><ele>242.39</ele><time>2015-07-22T09:47:56Z</time></trkpt><trkpt lat="51.7019676883" lon="-2.2992050741"><ele>241.43</ele><time>2015-07-22T09:48:16Z</time></trkpt><trkpt lat="51.7019443028" lon="-2.2991853766"><ele>244.79</ele><time>2015-07-22T09:48:20Z</time></trkpt><trkpt lat="51.7018908262" lon="-2.2991979495"><ele>241.43</ele><time>2015-07-22T09:48:26Z</time></trkpt><trkpt lat="51.7018723022" lon="-2.2991976980"><ele>243.35</ele><time>2015-07-22T09:48:30Z</time></trkpt><trkpt lat="51.7018815223" lon="-2.2991855443"><ele>241.43</ele><time>2015-07-22T09:48:32Z</time></trkpt><trkpt lat="51.7018987052" lon="-2.2991853766"><ele>243.35</ele><time>2015-07-22T09:48:40Z</time></trkpt><trkpt lat="51.7019336578" lon="-2.2991276253"><ele>241.91</ele><time>2015-07-22T09:48:56Z</time></trkpt><trkpt lat="51.7018545326" lon="-2.2989937663"><ele>238.06</ele><time>2015-07-22T09:49:09Z</time></trkpt><trkpt lat="51.7018502578" lon="-2.2989867255"><ele>244.79</ele><time>2015-07-22T09:49:10Z</time></trkpt><trkpt lat="51.7018431332" lon="-2.2990163974"><ele>242.87</ele><time>2015-07-22T09:49:13Z</time></trkpt><trkpt lat="51.7019615695" lon="-2.2990453150"><ele>242.39</ele><time>2015-07-22T09:49:34Z</time></trkpt><trkpt lat="51.7019987851" lon="-2.2990646772"><ele>242.87</ele><time>2015-07-22T09:49:56Z</time></trkpt><trkpt lat="51.7019914091" lon="-2.2990692034"><ele>242.39</ele><time>2015-07-22T09:50:14Z</time></trkpt><trkpt lat="51.7019795906" lon="-2.2990861349"><ele>242.39</ele><time>2015-07-22T09:50:45Z</time></trkpt><trkpt lat="51.7019588035" lon="-2.2990572173"><ele>243.35</ele><time>2015-07-22T09:51:10Z</time></trkpt><trkpt lat="51.7019550316" lon="-2.2990537807"><ele>243.83</ele><time>2015-07-22T09:51:39Z</time></trkpt><trkpt lat="51.7019810155" lon="-2.2990910802"><ele>243.83</ele><time>2015-07-22T09:51:56Z</time></trkpt><trkpt lat="51.7019980308" lon="-2.2990816925"><ele>247.20</ele><time>2015-07-22T09:52:02Z</time></trkpt><trkpt lat="51.7020007130" lon="-2.2990815248"><ele>243.83</ele><time>2015-07-22T09:52:10Z</time></trkpt><trkpt lat="51.7020023894" lon="-2.2990811896"><ele>247.20</ele><time>2015-07-22T09:52:11Z</time></trkpt><trkpt lat="51.7021085043" lon="-2.2990230191"><ele>244.79</ele><time>2015-07-22T09:52:24Z</time></trkpt><trkpt lat="51.7023413535" lon="-2.2989727277"><ele>245.27</ele><time>2015-07-22T09:52:46Z</time></trkpt><trkpt lat="51.7025590315" lon="-2.2989601549"><ele>244.79</ele><time>2015-07-22T09:53:07Z</time></trkpt><trkpt lat="51.7026429344" lon="-2.2989145573"><ele>244.79</ele><time>2015-07-22T09:53:24Z</time></trkpt><trkpt lat="51.7027240712" lon="-2.2988765873"><ele>243.83</ele><time>2015-07-22T09:53:38Z</time></trkpt><trkpt lat="51.7027777154" lon="-2.2988836281"><ele>244.79</ele><time>2015-07-22T09:53:54Z</time></trkpt><trkpt lat="51.7028509732" lon="-2.2988625057"><ele>245.27</ele><time>2015-07-22T09:54:10Z</time></trkpt><trkpt lat="51.7029869277" lon="-2.2988128848"><ele>244.79</ele><time>2015-07-22T09:54:26Z</time></trkpt><trkpt lat="51.7030558269" lon="-2.2988059279"><ele>245.27</ele><time>2015-07-22T09:54:32Z</time></trkpt><trkpt lat="51.7031557392" lon="-2.2987893317"><ele>245.27</ele><time>2015-07-22T09:54:42Z</time></trkpt><trkpt lat="51.7033058591" lon="-2.2987597436"><ele>243.35</ele><time>2015-07-22T09:54:59Z</time></trkpt><trkpt lat="51.7034352757" lon="-2.2987545468"><ele>244.31</ele><time>2015-07-22T09:55:11Z</time></trkpt><trkpt lat="51.7034582421" lon="-2.2987425607"><ele>242.39</ele><time>2015-07-22T09:55:14Z</time></trkpt><trkpt lat="51.7035052646" lon="-2.2987133916"><ele>239.02</ele><time>2015-07-22T09:55:21Z</time></trkpt><trkpt lat="51.7035150714" lon="-2.2987041716"><ele>242.39</ele><time>2015-07-22T09:55:22Z</time></trkpt><trkpt lat="51.7035407200" lon="-2.2986763436"><ele>244.79</ele><time>2015-07-22T09:55:25Z</time></trkpt><trkpt lat="51.7035573162" lon="-2.2986740805"><ele>242.87</ele><time>2015-07-22T09:55:27Z</time></trkpt><trkpt lat="51.7037321627" lon="-2.2986138146"><ele>242.87</ele><time>2015-07-22T09:55:48Z</time></trkpt><trkpt lat="51.7039457336" lon="-2.2986435704"><ele>240.95</ele><time>2015-07-22T09:56:07Z</time></trkpt><trkpt lat="51.7041235976" lon="-2.2986165807"><ele>240.95</ele><time>2015-07-22T09:56:26Z</time></trkpt><trkpt lat="51.7042477336" lon="-2.2985888366"><ele>240.47</ele><time>2015-07-22T09:56:41Z</time></trkpt><trkpt lat="51.7043127771" lon="-2.2985846456"><ele>241.43</ele><time>2015-07-22T09:57:00Z</time></trkpt><trkpt lat="51.7043007072" lon="-2.2985878307"><ele>239.99</ele><time>2015-07-22T09:57:24Z</time></trkpt><trkpt lat="51.7044364940" lon="-2.2985615954"><ele>241.91</ele><time>2015-07-22T09:57:42Z</time></trkpt><trkpt lat="51.7044571135" lon="-2.2985635232"><ele>239.02</ele><time>2015-07-22T09:57:44Z</time></trkpt><trkpt lat="51.7045044713" lon="-2.2985449992"><ele>239.51</ele><time>2015-07-22T09:57:49Z</time></trkpt><trkpt lat="51.7046754621" lon="-2.2985433228"><ele>239.02</ele><time>2015-07-22T09:58:04Z</time></trkpt><trkpt lat="51.7048021127" lon="-2.2985517047"><ele>240.47</ele><time>2015-07-22T09:58:17Z</time></trkpt><trkpt lat="51.7049577646" lon="-2.2985289898"><ele>239.51</ele><time>2015-07-22T09:58:36Z</time></trkpt><trkpt lat="51.7051096447" lon="-2.2985424008"><ele>236.14</ele><time>2015-07-22T09:58:52Z</time></trkpt><trkpt lat="51.7051212117" lon="-2.2985413112"><ele>239.51</ele><time>2015-07-22T09:58:54Z</time></trkpt><trkpt lat="51.7051546555" lon="-2.2985440772"><ele>238.54</ele><time>2015-07-22T09:58:57Z</time></trkpt><trkpt lat="51.7053414881" lon="-2.2985226195"><ele>235.66</ele><time>2015-07-22T09:59:15Z</time></trkpt><trkpt lat="51.7054156680" lon="-2.2985287383"><ele>239.02</ele><time>2015-07-22T09:59:25Z</time></trkpt><trkpt lat="51.7055008281" lon="-2.2985245474"><ele>238.06</ele><time>2015-07-22T09:59:34Z</time></trkpt><trkpt lat="51.7057032511" lon="-2.2985538840"><ele>237.58</ele><time>2015-07-22T09:59:55Z</time></trkpt><trkpt lat="51.7057000659" lon="-2.2985517886"><ele>237.58</ele><time>2015-07-22T10:00:18Z</time></trkpt><trkpt lat="51.7057774309" lon="-2.2986283153"><ele>236.62</ele><time>2015-07-22T10:00:37Z</time></trkpt><trkpt lat="51.7059946898" lon="-2.2986111324"><ele>237.10</ele><time>2015-07-22T10:00:59Z</time></trkpt><trkpt lat="51.7059527803" lon="-2.2986747511"><ele>237.58</ele><time>2015-07-22T10:01:19Z</time></trkpt><trkpt lat="51.7059391178" lon="-2.2986062709"><ele>237.10</ele><time>2015-07-22T10:01:37Z</time></trkpt><trkpt lat="51.7059758306" lon="-2.2986662015"><ele>235.18</ele><time>2015-07-22T10:01:55Z</time></trkpt><trkpt lat="51.7060737312" lon="-2.2986614238"><ele>236.14</ele><time>2015-07-22T10:02:15Z</time></trkpt><trkpt lat="51.7060966976" lon="-2.2986473422"><ele>232.30</ele><time>2015-07-22T10:02:21Z</time></trkpt><trkpt lat="51.7061040737" lon="-2.2986512817"><ele>236.62</ele><time>2015-07-22T10:02:22Z</time></trkpt><trkpt lat="51.7062404472" lon="-2.2986704763"><ele>237.10</ele><time>2015-07-22T10:02:39Z</time></trkpt><trkpt lat="51.7062846199" lon="-2.2986634355"><ele>237.10</ele><time>2015-07-22T10:02:43Z</time></trkpt><trkpt lat="51.7064017989" lon="-2.2987069376"><ele>237.10</ele><time>2015-07-22T10:03:03Z</time></trkpt><trkpt lat="51.7064216640" lon="-2.2987057641"><ele>237.58</ele><time>2015-07-22T10:03:07Z</time></trkpt><trkpt lat="51.7064872943" lon="-2.2986698058"><ele>236.14</ele><time>2015-07-22T10:03:20Z</time></trkpt><trkpt lat="51.7065090034" lon="-2.2986730747"><ele>237.10</ele><time>2015-07-22T10:03:25Z</time></trkpt><trkpt lat="51.7066105083" lon="-2.2987144813"><ele>236.62</ele><time>2015-07-22T10:03:47Z</time></trkpt><trkpt lat="51.7066011205" lon="-2.2987361066"><ele>236.14</ele><time>2015-07-22T10:04:09Z</time></trkpt><trkpt lat="51.7066566925" lon="-2.2987845540"><ele>236.62</ele><time>2015-07-22T10:04:28Z</time></trkpt><trkpt lat="51.7067614663" lon="-2.2989165690"><ele>234.70</ele><time>2015-07-22T10:04:39Z</time></trkpt><trkpt lat="51.7067680042" lon="-2.2989583947"><ele>236.14</ele><time>2015-07-22T10:04:41Z</time></trkpt><trkpt lat="51.7068074830" lon="-2.2990592290"><ele>236.14</ele><time>2015-07-22T10:04:46Z</time></trkpt><trkpt lat="51.7069680803" lon="-2.2992956825"><ele>234.70</ele><time>2015-07-22T10:05:02Z</time></trkpt><trkpt lat="51.7070829961" lon="-2.2993894760"><ele>233.74</ele><time>2015-07-22T10:05:14Z</time></trkpt><trkpt lat="51.7072418332" lon="-2.2995004524"><ele>234.22</ele><time>2015-07-22T10:05:31Z</time></trkpt><trkpt lat="51.7073316872" lon="-2.2997205611"><ele>232.78</ele><time>2015-07-22T10:05:50Z</time></trkpt><trkpt lat="51.7074471898" lon="-2.2999645583"><ele>232.30</ele><time>2015-07-22T10:06:09Z</time></trkpt><trkpt lat="51.7074780352" lon="-2.3001482897"><ele>231.33</ele><time>2015-07-22T10:06:21Z</time></trkpt><trkpt lat="51.7075370438" lon="-2.3003102280"><ele>231.81</ele><time>2015-07-22T10:06:37Z</time></trkpt><trkpt lat="51.7075386364" lon="-2.3003137484"><ele>231.33</ele><time>2015-07-22T10:07:01Z</time></trkpt><trkpt lat="51.7075348645" lon="-2.3003108986"><ele>231.81</ele><time>2015-07-22T10:07:31Z</time></trkpt><trkpt lat="51.7075121496" lon="-2.3003015108"><ele>232.30</ele><time>2015-07-22T10:07:48Z</time></trkpt><trkpt lat="51.7074932903" lon="-2.3003156763"><ele>231.81</ele><time>2015-07-22T10:08:04Z</time></trkpt><trkpt lat="51.7074456811" lon="-2.3003217950"><ele>229.41</ele><time>2015-07-22T10:08:20Z</time></trkpt><trkpt lat="51.7074286658" lon="-2.3003523052"><ele>228.45</ele><time>2015-07-22T10:08:22Z</time></trkpt><trkpt lat="51.7074309289" lon="-2.3004142474"><ele>230.37</ele><time>2015-07-22T10:08:25Z</time></trkpt><trkpt lat="51.7074229661" lon="-2.3004556540"><ele>227.97</ele><time>2015-07-22T10:08:28Z</time></trkpt><trkpt lat="51.7074267380" lon="-2.3005973082"><ele>227.49</ele><time>2015-07-22T10:08:36Z</time></trkpt><trkpt lat="51.7074282467" lon="-2.3006101325"><ele>231.33</ele><time>2015-07-22T10:08:37Z</time></trkpt><trkpt lat="51.7074332759" lon="-2.3006214481"><ele>231.33</ele><time>2015-07-22T10:08:38Z</time></trkpt><trkpt lat="51.7074684799" lon="-2.3007947858"><ele>229.89</ele><time>2015-07-22T10:08:51Z</time></trkpt><trkpt lat="51.7074574996" lon="-2.3008166626"><ele>226.53</ele><time>2015-07-22T10:08:57Z</time></trkpt><trkpt lat="51.7074574996" lon="-2.3008165788"><ele>227.97</ele><time>2015-07-22T10:08:58Z</time></trkpt><trkpt lat="51.7074588407" lon="-2.3008148186"><ele>232.30</ele><time>2015-07-22T10:09:16Z</time></trkpt><trkpt lat="51.7074623611" lon="-2.3008101247"><ele>227.49</ele><time>2015-07-22T10:09:19Z</time></trkpt><trkpt lat="51.7074834835" lon="-2.3008190095"><ele>229.89</ele><time>2015-07-22T10:09:35Z</time></trkpt><trkpt lat="51.7074822262" lon="-2.3008227814"><ele>227.97</ele><time>2015-07-22T10:09:53Z</time></trkpt><trkpt lat="51.7074800469" lon="-2.3008245416"><ele>228.93</ele><time>2015-07-22T10:10:17Z</time></trkpt><trkpt lat="51.7074668873" lon="-2.3008007370"><ele>230.37</ele><time>2015-07-22T10:10:38Z</time></trkpt><trkpt lat="51.7074468546" lon="-2.3008194286"><ele>225.57</ele><time>2015-07-22T10:10:41Z</time></trkpt><trkpt lat="51.7074440047" lon="-2.3008240387"><ele>229.89</ele><time>2015-07-22T10:10:43Z</time></trkpt><trkpt lat="51.7074430827" lon="-2.3008244578"><ele>229.41</ele><time>2015-07-22T10:10:44Z</time></trkpt><trkpt lat="51.7074404843" lon="-2.3008209374"><ele>232.78</ele><time>2015-07-22T10:11:02Z</time></trkpt><trkpt lat="51.7074406520" lon="-2.3008209374"><ele>231.81</ele><time>2015-07-22T10:11:03Z</time></trkpt><trkpt lat="51.7074412387" lon="-2.3008211050"><ele>226.05</ele><time>2015-07-22T10:11:04Z</time></trkpt><trkpt lat="51.7074419931" lon="-2.3008219432"><ele>233.26</ele><time>2015-07-22T10:11:05Z</time></trkpt><trkpt lat="51.7074424122" lon="-2.3008223623"><ele>228.93</ele><time>2015-07-22T10:11:06Z</time></trkpt><trkpt lat="51.7074461002" lon="-2.3008223623"><ele>226.05</ele><time>2015-07-22T10:11:22Z</time></trkpt><trkpt lat="51.7074462678" lon="-2.3008224461"><ele>227.01</ele><time>2015-07-22T10:11:23Z</time></trkpt><trkpt lat="51.7074461840" lon="-2.3008221947"><ele>230.37</ele><time>2015-07-22T10:11:24Z</time></trkpt><trkpt lat="51.7074462678" lon="-2.3008221947"><ele>229.41</ele><time>2015-07-22T10:11:25Z</time></trkpt><trkpt lat="51.7074590921" lon="-2.3008139804"><ele>228.93</ele><time>2015-07-22T10:11:29Z</time></trkpt><trkpt lat="51.7074590921" lon="-2.3008129746"><ele>229.89</ele><time>2015-07-22T10:11:31Z</time></trkpt><trkpt lat="51.7074648757" lon="-2.3008081131"><ele>225.57</ele><time>2015-07-22T10:11:47Z</time></trkpt><trkpt lat="51.7074652109" lon="-2.3008077778"><ele>231.33</ele><time>2015-07-22T10:11:48Z</time></trkpt><trkpt lat="51.7074489500" lon="-2.3007831350"><ele>227.49</ele><time>2015-07-22T10:12:08Z</time></trkpt><trkpt lat="51.7074461002" lon="-2.3007594980"><ele>231.33</ele><time>2015-07-22T10:12:10Z</time></trkpt><trkpt lat="51.7074366286" lon="-2.3006918561"><ele>227.49</ele><time>2015-07-22T10:12:15Z</time></trkpt><trkpt lat="51.7074323539" lon="-2.3006579932"><ele>230.85</ele><time>2015-07-22T10:12:17Z</time></trkpt><trkpt lat="51.7074185237" lon="-2.3004725017"><ele>229.41</ele><time>2015-07-22T10:12:29Z</time></trkpt><trkpt lat="51.7074616067" lon="-2.3003551550"><ele>232.30</ele><time>2015-07-22T10:12:37Z</time></trkpt><trkpt lat="51.7074805498" lon="-2.3003095575"><ele>231.81</ele><time>2015-07-22T10:12:41Z</time></trkpt><trkpt lat="51.7075048573" lon="-2.3002948891"><ele>230.85</ele><time>2015-07-22T10:12:55Z</time></trkpt><trkpt lat="51.7075054441" lon="-2.3002938833"><ele>234.70</ele><time>2015-07-22T10:12:57Z</time></trkpt><trkpt lat="51.7075059470" lon="-2.3002935480"><ele>232.30</ele><time>2015-07-22T10:12:58Z</time></trkpt><trkpt lat="51.7074684799" lon="-2.3000622913"><ele>232.30</ele><time>2015-07-22T10:13:10Z</time></trkpt><trkpt lat="51.7074505426" lon="-2.3000239022"><ele>233.26</ele><time>2015-07-22T10:13:12Z</time></trkpt><trkpt lat="51.7074362934" lon="-2.2999921348"><ele>230.37</ele><time>2015-07-22T10:13:14Z</time></trkpt><trkpt lat="51.7073894385" lon="-2.2998537496"><ele>232.78</ele><time>2015-07-22T10:13:21Z</time></trkpt><trkpt lat="51.7073508818" lon="-2.2997473832"><ele>231.81</ele><time>2015-07-22T10:13:27Z</time></trkpt><trkpt lat="51.7073180247" lon="-2.2996650729"><ele>233.26</ele><time>2015-07-22T10:13:32Z</time></trkpt><trkpt lat="51.7072938010" lon="-2.2996092495"><ele>234.70</ele><time>2015-07-22T10:13:35Z</time></trkpt><trkpt lat="51.7072161008" lon="-2.2994999494"><ele>233.26</ele><time>2015-07-22T10:13:53Z</time></trkpt><trkpt lat="51.7072055396" lon="-2.2994939983"><ele>234.70</ele><time>2015-07-22T10:14:13Z</time></trkpt><trkpt lat="51.7071748618" lon="-2.2994611412"><ele>231.81</ele><time>2015-07-22T10:14:16Z</time></trkpt><trkpt lat="51.7071701679" lon="-2.2994444612"><ele>233.26</ele><time>2015-07-22T10:14:17Z</time></trkpt><trkpt lat="51.7071386520" lon="-2.2993798368"><ele>233.74</ele><time>2015-07-22T10:14:34Z</time></trkpt><trkpt lat="51.7071453575" lon="-2.2993835248"><ele>233.74</ele><time>2015-07-22T10:15:02Z</time></trkpt><trkpt lat="51.7071488779" lon="-2.2993862908"><ele>234.70</ele><time>2015-07-22T10:15:29Z</time></trkpt><trkpt lat="51.7071505543" lon="-2.2993871290"><ele>232.30</ele><time>2015-07-22T10:15:51Z</time></trkpt><trkpt lat="51.7071509734" lon="-2.2993873805"><ele>236.62</ele><time>2015-07-22T10:15:53Z</time></trkpt><trkpt lat="51.7071509734" lon="-2.2993874643"><ele>235.18</ele><time>2015-07-22T10:15:54Z</time></trkpt><trkpt lat="51.7071513925" lon="-2.2993867937"><ele>233.74</ele><time>2015-07-22T10:15:56Z</time></trkpt><trkpt lat="51.7071522307" lon="-2.2993835248"><ele>229.89</ele><time>2015-07-22T10:16:01Z</time></trkpt><trkpt lat="51.7071520630" lon="-2.2993832733"><ele>240.95</ele><time>2015-07-22T10:16:02Z</time></trkpt><trkpt lat="51.7071517278" lon="-2.2993831057"><ele>232.78</ele><time>2015-07-22T10:16:03Z</time></trkpt><trkpt lat="51.7071516439" lon="-2.2993827704"><ele>236.14</ele><time>2015-07-22T10:16:05Z</time></trkpt><trkpt lat="51.7071515601" lon="-2.2993826028"><ele>231.81</ele><time>2015-07-22T10:16:06Z</time></trkpt><trkpt lat="51.7071515601" lon="-2.2993823513"><ele>239.02</ele><time>2015-07-22T10:16:07Z</time></trkpt><trkpt lat="51.7071514763" lon="-2.2993821837"><ele>233.26</ele><time>2015-07-22T10:16:08Z</time></trkpt><trkpt lat="51.7071880214" lon="-2.2993547749"><ele>233.74</ele><time>2015-07-22T10:16:36Z</time></trkpt><trkpt lat="51.7071862612" lon="-2.2993515059"><ele>233.74</ele><time>2015-07-22T10:17:08Z</time></trkpt><trkpt lat="51.7071834952" lon="-2.2993571218"><ele>233.74</ele><time>2015-07-22T10:17:36Z</time></trkpt><trkpt lat="51.7071970738" lon="-2.2993668448"><ele>233.74</ele><time>2015-07-22T10:18:02Z</time></trkpt><trkpt lat="51.7072085571" lon="-2.2993731312"><ele>234.22</ele><time>2015-07-22T10:18:42Z</time></trkpt><trkpt lat="51.7072057072" lon="-2.2993742209"><ele>233.74</ele><time>2015-07-22T10:19:10Z</time></trkpt><trkpt lat="51.7071989179" lon="-2.2993758973"><ele>234.22</ele><time>2015-07-22T10:19:38Z</time></trkpt><trkpt lat="51.7071961518" lon="-2.2993722931"><ele>234.22</ele><time>2015-07-22T10:20:09Z</time></trkpt><trkpt lat="51.7071979959" lon="-2.2993618995"><ele>235.18</ele><time>2015-07-22T10:20:45Z</time></trkpt><trkpt lat="51.7071962357" lon="-2.2993605584"><ele>235.18</ele><time>2015-07-22T10:21:19Z</time></trkpt><trkpt lat="51.7071939725" lon="-2.2993618995"><ele>235.18</ele><time>2015-07-22T10:21:53Z</time></trkpt><trkpt lat="51.7071949784" lon="-2.2993574571"><ele>235.66</ele><time>2015-07-22T10:22:29Z</time></trkpt><trkpt lat="51.7071979959" lon="-2.2993509192"><ele>235.18</ele><time>2015-07-22T10:23:05Z</time></trkpt><trkpt lat="51.7072002590" lon="-2.2993458062"><ele>235.66</ele><time>2015-07-22T10:23:47Z</time></trkpt><trkpt lat="51.7072004266" lon="-2.2993459739"><ele>239.02</ele><time>2015-07-22T10:23:48Z</time></trkpt><trkpt lat="51.7072005104" lon="-2.2993460577"><ele>235.66</ele><time>2015-07-22T10:23:49Z</time></trkpt><trkpt lat="51.7072086409" lon="-2.2993402742"><ele>235.66</ele><time>2015-07-22T10:24:25Z</time></trkpt><trkpt lat="51.7072120775" lon="-2.2993366700"><ele>235.18</ele><time>2015-07-22T10:25:06Z</time></trkpt><trkpt lat="51.7072207946" lon="-2.2993297968"><ele>235.18</ele><time>2015-07-22T10:25:42Z</time></trkpt><trkpt lat="51.7072400730" lon="-2.2993165534"><ele>235.66</ele><time>2015-07-22T10:26:07Z</time></trkpt><trkpt lat="51.7073558271" lon="-2.2992630769"><ele>235.66</ele><time>2015-07-22T10:26:32Z</time></trkpt><trkpt lat="51.7073224671" lon="-2.2993197385"><ele>236.62</ele><time>2015-07-22T10:27:10Z</time></trkpt><trkpt lat="51.7073186114" lon="-2.2993188165"><ele>233.26</ele><time>2015-07-22T10:27:12Z</time></trkpt><trkpt lat="51.7073172703" lon="-2.2993181460"><ele>240.95</ele><time>2015-07-22T10:27:13Z</time></trkpt><trkpt lat="51.7073144205" lon="-2.2993178107"><ele>237.58</ele><time>2015-07-22T10:27:14Z</time></trkpt><trkpt lat="51.7073122412" lon="-2.2993171401"><ele>236.14</ele><time>2015-07-22T10:27:16Z</time></trkpt><trkpt lat="51.7072171066" lon="-2.2993453033"><ele>235.18</ele><time>2015-07-22T10:27:46Z</time></trkpt><trkpt lat="51.7072165199" lon="-2.2993453871"><ele>238.06</ele><time>2015-07-22T10:27:47Z</time></trkpt><trkpt lat="51.7072174419" lon="-2.2993458062"><ele>236.62</ele><time>2015-07-22T10:27:51Z</time></trkpt><trkpt lat="51.7072133347" lon="-2.2993385978"><ele>237.58</ele><time>2015-07-22T10:28:28Z</time></trkpt><trkpt lat="51.7072141729" lon="-2.2993360832"><ele>237.58</ele><time>2015-07-22T10:28:56Z</time></trkpt><trkpt lat="51.7072063778" lon="-2.2993342392"><ele>237.10</ele><time>2015-07-22T10:29:33Z</time></trkpt><trkpt lat="51.7072008457" lon="-2.2993290424"><ele>237.58</ele><time>2015-07-22T10:30:01Z</time></trkpt><trkpt lat="51.7071990017" lon="-2.2993298806"><ele>242.87</ele><time>2015-07-22T10:30:06Z</time></trkpt><trkpt lat="51.7071939725" lon="-2.2993336525"><ele>238.54</ele><time>2015-07-22T10:30:07Z</time></trkpt><trkpt lat="51.7071701679" lon="-2.2993426211"><ele>237.58</ele><time>2015-07-22T10:30:39Z</time></trkpt><trkpt lat="51.7071646359" lon="-2.2993393522"><ele>238.06</ele><time>2015-07-22T10:31:02Z</time></trkpt><trkpt lat="51.7071613669" lon="-2.2993396036"><ele>238.06</ele><time>2015-07-22T10:31:28Z</time></trkpt><trkpt lat="51.7071461957" lon="-2.2993488237"><ele>238.06</ele><time>2015-07-22T10:31:54Z</time></trkpt><trkpt lat="51.7071503028" lon="-2.2993454710"><ele>238.54</ele><time>2015-07-22T10:32:25Z</time></trkpt><trkpt lat="51.7071446031" lon="-2.2993428726"><ele>234.70</ele><time>2015-07-22T10:32:31Z</time></trkpt><trkpt lat="51.7071368918" lon="-2.2993377596"><ele>237.58</ele><time>2015-07-22T10:32:32Z</time></trkpt><trkpt lat="51.7071275041" lon="-2.2993328143"><ele>237.10</ele><time>2015-07-22T10:32:33Z</time></trkpt><trkpt lat="51.7070865165" lon="-2.2993018851"><ele>239.02</ele><time>2015-07-22T10:32:37Z</time></trkpt><trkpt lat="51.7070528213" lon="-2.2992467321"><ele>239.51</ele><time>2015-07-22T10:32:41Z</time></trkpt><trkpt lat="51.7070220597" lon="-2.2991960216"><ele>238.54</ele><time>2015-07-22T10:32:45Z</time></trkpt><trkpt lat="51.7068996001" lon="-2.2990963608"><ele>239.51</ele><time>2015-07-22T10:33:00Z</time></trkpt><trkpt lat="51.7068058904" lon="-2.2989388648"><ele>239.51</ele><time>2015-07-22T10:33:16Z</time></trkpt><trkpt lat="51.7067187186" lon="-2.2987823747"><ele>240.95</ele><time>2015-07-22T10:33:31Z</time></trkpt><trkpt lat="51.7066028807" lon="-2.2986368649"><ele>240.47</ele><time>2015-07-22T10:33:50Z</time></trkpt><trkpt lat="51.7063812632" lon="-2.2986640222"><ele>241.91</ele><time>2015-07-22T10:34:11Z</time></trkpt><trkpt lat="51.7063342407" lon="-2.2986445762"><ele>240.95</ele><time>2015-07-22T10:34:30Z</time></trkpt><trkpt lat="51.7062926665" lon="-2.2987124696"><ele>239.99</ele><time>2015-07-22T10:34:49Z</time></trkpt><trkpt lat="51.7061609868" lon="-2.2987220250"><ele>240.47</ele><time>2015-07-22T10:35:04Z</time></trkpt><trkpt lat="51.7061137129" lon="-2.2987098712"><ele>236.62</ele><time>2015-07-22T10:35:11Z</time></trkpt><trkpt lat="51.7061093543" lon="-2.2987055127"><ele>239.99</ele><time>2015-07-22T10:35:12Z</time></trkpt><trkpt lat="51.7060700431" lon="-2.2986654472"><ele>241.43</ele><time>2015-07-22T10:35:33Z</time></trkpt><trkpt lat="51.7058868986" lon="-2.2986332607"><ele>241.43</ele><time>2015-07-22T10:35:52Z</time></trkpt><trkpt lat="51.7056719866" lon="-2.2985339351"><ele>240.47</ele><time>2015-07-22T10:36:13Z</time></trkpt><trkpt lat="51.7056721542" lon="-2.2984903492"><ele>245.27</ele><time>2015-07-22T10:36:17Z</time></trkpt><trkpt lat="51.7056695558" lon="-2.2984742559"><ele>239.51</ele><time>2015-07-22T10:36:18Z</time></trkpt><trkpt lat="51.7056736629" lon="-2.2984434944"><ele>240.95</ele><time>2015-07-22T10:36:20Z</time></trkpt><trkpt lat="51.7056535464" lon="-2.2984464280"><ele>240.95</ele><time>2015-07-22T10:36:41Z</time></trkpt><trkpt lat="51.7056729924" lon="-2.2984615993"><ele>240.47</ele><time>2015-07-22T10:37:02Z</time></trkpt><trkpt lat="51.7056599166" lon="-2.2984647844"><ele>237.10</ele><time>2015-07-22T10:37:13Z</time></trkpt><trkpt lat="51.7056600843" lon="-2.2984633595"><ele>241.91</ele><time>2015-07-22T10:37:14Z</time></trkpt><trkpt lat="51.7056518700" lon="-2.2984606773"><ele>242.39</ele><time>2015-07-22T10:37:18Z</time></trkpt><trkpt lat="51.7056017462" lon="-2.2983282432"><ele>240.95</ele><time>2015-07-22T10:37:34Z</time></trkpt><trkpt lat="51.7056064401" lon="-2.2983065341"><ele>241.43</ele><time>2015-07-22T10:37:35Z</time></trkpt><trkpt lat="51.7056137323" lon="-2.2982594278"><ele>241.91</ele><time>2015-07-22T10:37:37Z</time></trkpt><trkpt lat="51.7056281492" lon="-2.2981865890"><ele>241.91</ele><time>2015-07-22T10:37:42Z</time></trkpt><trkpt lat="51.7056191806" lon="-2.2981382255"><ele>243.83</ele><time>2015-07-22T10:37:45Z</time></trkpt><trkpt lat="51.7056185100" lon="-2.2981139179"><ele>242.39</ele><time>2015-07-22T10:37:47Z</time></trkpt><trkpt lat="51.7055964656" lon="-2.2979154345"><ele>244.31</ele><time>2015-07-22T10:38:02Z</time></trkpt><trkpt lat="51.7055866588" lon="-2.2977803182"><ele>245.27</ele><time>2015-07-22T10:38:16Z</time></trkpt><trkpt lat="51.7055807915" lon="-2.2976167034"><ele>243.35</ele><time>2015-07-22T10:38:30Z</time></trkpt><trkpt lat="51.7055851500" lon="-2.2974173818"><ele>244.31</ele><time>2015-07-22T10:38:42Z</time></trkpt><trkpt lat="51.7055746727" lon="-2.2971636616"><ele>246.23</ele><time>2015-07-22T10:38:59Z</time></trkpt><trkpt lat="51.7055734154" lon="-2.2970809322"><ele>245.75</ele><time>2015-07-22T10:39:07Z</time></trkpt><trkpt lat="51.7055677995" lon="-2.2968482506"><ele>245.75</ele><time>2015-07-22T10:39:24Z</time></trkpt><trkpt lat="51.7055713199" lon="-2.2968157288"><ele>245.75</ele><time>2015-07-22T10:39:46Z</time></trkpt><trkpt lat="51.7055721581" lon="-2.2967949416"><ele>244.79</ele><time>2015-07-22T10:40:03Z</time></trkpt><trkpt lat="51.7055763490" lon="-2.2966682073"><ele>246.23</ele><time>2015-07-22T10:40:12Z</time></trkpt><trkpt lat="51.7055736668" lon="-2.2964637727"><ele>244.79</ele><time>2015-07-22T10:40:26Z</time></trkpt><trkpt lat="51.7055665422" lon="-2.2961916123"><ele>237.58</ele><time>2015-07-22T10:40:38Z</time></trkpt><trkpt lat="51.7055640277" lon="-2.2961757705"><ele>248.64</ele><time>2015-07-22T10:40:39Z</time></trkpt><trkpt lat="51.7055601720" lon="-2.2961443383"><ele>244.31</ele><time>2015-07-22T10:40:41Z</time></trkpt><trkpt lat="51.7055591661" lon="-2.2961255629"><ele>244.79</ele><time>2015-07-22T10:40:42Z</time></trkpt><trkpt lat="51.7055493593" lon="-2.2959826514"><ele>245.27</ele><time>2015-07-22T10:40:54Z</time></trkpt><trkpt lat="51.7055067793" lon="-2.2957643867"><ele>245.27</ele><time>2015-07-22T10:41:04Z</time></trkpt><trkpt lat="51.7054919433" lon="-2.2956852615"><ele>244.31</ele><time>2015-07-22T10:41:08Z</time></trkpt><trkpt lat="51.7054386344" lon="-2.2953763884"><ele>245.27</ele><time>2015-07-22T10:41:26Z</time></trkpt><trkpt lat="51.7053967249" lon="-2.2950895596"><ele>244.79</ele><time>2015-07-22T10:41:42Z</time></trkpt><trkpt lat="51.7053394765" lon="-2.2949910723"><ele>243.83</ele><time>2015-07-22T10:41:54Z</time></trkpt><trkpt lat="51.7052396480" lon="-2.2947815247"><ele>244.31</ele><time>2015-07-22T10:42:13Z</time></trkpt><trkpt lat="51.7052354570" lon="-2.2947616596"><ele>244.31</ele><time>2015-07-22T10:42:14Z</time></trkpt><trkpt lat="51.7051842436" lon="-2.2944770940"><ele>243.83</ele><time>2015-07-22T10:42:34Z</time></trkpt><trkpt lat="51.7051319405" lon="-2.2943411395"><ele>244.31</ele><time>2015-07-22T10:42:43Z</time></trkpt><trkpt lat="51.7050714232" lon="-2.2941776086"><ele>241.43</ele><time>2015-07-22T10:42:54Z</time></trkpt><trkpt lat="51.7050118279" lon="-2.2940843180"><ele>244.31</ele><time>2015-07-22T10:43:03Z</time></trkpt><trkpt lat="51.7048767116" lon="-2.2938341182"><ele>242.39</ele><time>2015-07-22T10:43:22Z</time></trkpt><trkpt lat="51.7047441099" lon="-2.2936323658"><ele>241.91</ele><time>2015-07-22T10:43:42Z</time></trkpt><trkpt lat="51.7046305351" lon="-2.2933248337"><ele>241.91</ele><time>2015-07-22T10:44:01Z</time></trkpt><trkpt lat="51.7045051418" lon="-2.2930843569"><ele>240.47</ele><time>2015-07-22T10:44:20Z</time></trkpt><trkpt lat="51.7043830175" lon="-2.2928800900"><ele>239.99</ele><time>2015-07-22T10:44:40Z</time></trkpt><trkpt lat="51.7043680977" lon="-2.2928605601"><ele>240.95</ele><time>2015-07-22T10:44:42Z</time></trkpt><trkpt lat="51.7042175587" lon="-2.2925817780"><ele>239.02</ele><time>2015-07-22T10:45:03Z</time></trkpt><trkpt lat="51.7041004635" lon="-2.2923272196"><ele>239.02</ele><time>2015-07-22T10:45:24Z</time></trkpt><trkpt lat="51.7039598152" lon="-2.2921326756"><ele>238.54</ele><time>2015-07-22T10:45:42Z</time></trkpt><trkpt lat="51.7038022354" lon="-2.2919153329"><ele>237.10</ele><time>2015-07-22T10:46:03Z</time></trkpt><trkpt lat="51.7037221044" lon="-2.2916171048"><ele>237.10</ele><time>2015-07-22T10:46:23Z</time></trkpt><trkpt lat="51.7037484236" lon="-2.2914146818"><ele>236.62</ele><time>2015-07-22T10:46:38Z</time></trkpt><trkpt lat="51.7037600745" lon="-2.2914125025"><ele>237.58</ele><time>2015-07-22T10:46:54Z</time></trkpt><trkpt lat="51.7037696298" lon="-2.2913895361"><ele>237.58</ele><time>2015-07-22T10:47:20Z</time></trkpt><trkpt lat="51.7037811968" lon="-2.2913219780"><ele>236.62</ele><time>2015-07-22T10:47:39Z</time></trkpt><trkpt lat="51.7038189154" lon="-2.2911768872"><ele>236.62</ele><time>2015-07-22T10:47:50Z</time></trkpt><trkpt lat="51.7038627528" lon="-2.2909433674"><ele>235.18</ele><time>2015-07-22T10:48:04Z</time></trkpt><trkpt lat="51.7038631719" lon="-2.2909307107"><ele>235.18</ele><time>2015-07-22T10:48:05Z</time></trkpt><trkpt lat="51.7038353439" lon="-2.2907346580"><ele>233.74</ele><time>2015-07-22T10:48:19Z</time></trkpt><trkpt lat="51.7036881577" lon="-2.2906142101"><ele>232.78</ele><time>2015-07-22T10:48:34Z</time></trkpt><trkpt lat="51.7036132235" lon="-2.2905315645"><ele>231.81</ele><time>2015-07-22T10:48:46Z</time></trkpt><trkpt lat="51.7034025863" lon="-2.2903568018"><ele>231.81</ele><time>2015-07-22T10:49:05Z</time></trkpt><trkpt lat="51.7032593396" lon="-2.2902811971"><ele>230.37</ele><time>2015-07-22T10:49:22Z</time></trkpt><trkpt lat="51.7031177692" lon="-2.2902452387"><ele>229.41</ele><time>2015-07-22T10:49:36Z</time></trkpt><trkpt lat="51.7030078825" lon="-2.2902813647"><ele>230.37</ele><time>2015-07-22T10:49:51Z</time></trkpt><trkpt lat="51.7028566729" lon="-2.2902663611"><ele>230.85</ele><time>2015-07-22T10:50:10Z</time></trkpt><trkpt lat="51.7026940640" lon="-2.2901211027"><ele>229.41</ele><time>2015-07-22T10:50:29Z</time></trkpt><trkpt lat="51.7026207224" lon="-2.2903847974"><ele>227.97</ele><time>2015-07-22T10:50:49Z</time></trkpt><trkpt lat="51.7025552597" lon="-2.2905679420"><ele>226.53</ele><time>2015-07-22T10:51:07Z</time></trkpt><trkpt lat="51.7025538348" lon="-2.2905747313"><ele>229.89</ele><time>2015-07-22T10:51:08Z</time></trkpt><trkpt lat="51.7025516555" lon="-2.2905756533"><ele>223.16</ele><time>2015-07-22T10:51:11Z</time></trkpt><trkpt lat="51.7025510687" lon="-2.2905757371"><ele>230.37</ele><time>2015-07-22T10:51:12Z</time></trkpt><trkpt lat="51.7024592031" lon="-2.2907622345"><ele>228.45</ele><time>2015-07-22T10:51:30Z</time></trkpt><trkpt lat="51.7024664953" lon="-2.2908194829"><ele>228.45</ele><time>2015-07-22T10:51:42Z</time></trkpt><trkpt lat="51.7023833469" lon="-2.2908727080"><ele>227.97</ele><time>2015-07-22T10:51:58Z</time></trkpt><trkpt lat="51.7023842689" lon="-2.2908493225"><ele>227.97</ele><time>2015-07-22T10:52:27Z</time></trkpt><trkpt lat="51.7023230810" lon="-2.2909200657"><ele>227.49</ele><time>2015-07-22T10:52:49Z</time></trkpt><trkpt lat="51.7022224143" lon="-2.2910203133"><ele>226.53</ele><time>2015-07-22T10:53:02Z</time></trkpt><trkpt lat="51.7021164671" lon="-2.2911194712"><ele>226.53</ele><time>2015-07-22T10:53:14Z</time></trkpt><trkpt lat="51.7020855378" lon="-2.2911370732"><ele>228.45</ele><time>2015-07-22T10:53:17Z</time></trkpt><trkpt lat="51.7020532675" lon="-2.2911568545"><ele>228.93</ele><time>2015-07-22T10:53:21Z</time></trkpt><trkpt lat="51.7020501662" lon="-2.2911692597"><ele>225.09</ele><time>2015-07-22T10:53:22Z</time></trkpt><trkpt lat="51.7020451371" lon="-2.2911808267"><ele>227.97</ele><time>2015-07-22T10:53:23Z</time></trkpt><trkpt lat="51.7020405270" lon="-2.2911918070"><ele>231.33</ele><time>2015-07-22T10:53:24Z</time></trkpt><trkpt lat="51.7020323128" lon="-2.2911981773"><ele>227.01</ele><time>2015-07-22T10:53:25Z</time></trkpt><trkpt lat="51.7020133696" lon="-2.2912223171"><ele>229.41</ele><time>2015-07-22T10:53:28Z</time></trkpt><trkpt lat="51.7019839492" lon="-2.2912633885"><ele>228.93</ele><time>2015-07-22T10:53:32Z</time></trkpt><trkpt lat="51.7019651737" lon="-2.2913077287"><ele>228.93</ele><time>2015-07-22T10:53:36Z</time></trkpt><trkpt lat="51.7019204143" lon="-2.2913825791"><ele>229.89</ele><time>2015-07-22T10:53:43Z</time></trkpt><trkpt lat="51.7018855456" lon="-2.2914340440"><ele>232.78</ele><time>2015-07-22T10:53:48Z</time></trkpt><trkpt lat="51.7018806841" lon="-2.2914408334"><ele>227.49</ele><time>2015-07-22T10:53:49Z</time></trkpt><trkpt lat="51.7018767446" lon="-2.2914494667"><ele>227.97</ele><time>2015-07-22T10:53:50Z</time></trkpt><trkpt lat="51.7017989606" lon="-2.2915668972"><ele>230.85</ele><time>2015-07-22T10:54:02Z</time></trkpt><trkpt lat="51.7017364316" lon="-2.2917162627"><ele>227.49</ele><time>2015-07-22T10:54:14Z</time></trkpt><trkpt lat="51.7017246969" lon="-2.2917446773"><ele>231.33</ele><time>2015-07-22T10:54:16Z</time></trkpt><trkpt lat="51.7016844638" lon="-2.2918176837"><ele>227.97</ele><time>2015-07-22T10:54:22Z</time></trkpt><trkpt lat="51.7016749084" lon="-2.2918466851"><ele>230.85</ele><time>2015-07-22T10:54:24Z</time></trkpt><trkpt lat="51.7016527802" lon="-2.2919019219"><ele>230.85</ele><time>2015-07-22T10:54:29Z</time></trkpt><trkpt lat="51.7016241141" lon="-2.2919647861"><ele>229.89</ele><time>2015-07-22T10:54:34Z</time></trkpt><trkpt lat="51.7016098648" lon="-2.2920013312"><ele>233.26</ele><time>2015-07-22T10:54:37Z</time></trkpt><trkpt lat="51.7016029079" lon="-2.2920232080"><ele>229.41</ele><time>2015-07-22T10:54:39Z</time></trkpt><trkpt lat="51.7015943583" lon="-2.2920493595"><ele>232.30</ele><time>2015-07-22T10:54:41Z</time></trkpt><trkpt lat="51.7015497666" lon="-2.2921367828"><ele>231.81</ele><time>2015-07-22T10:54:48Z</time></trkpt><trkpt lat="51.7015116289" lon="-2.2922938596"><ele>235.18</ele><time>2015-07-22T10:54:58Z</time></trkpt><trkpt lat="51.7015079409" lon="-2.2923062649"><ele>235.18</ele><time>2015-07-22T10:54:59Z</time></trkpt><trkpt lat="51.7015001457" lon="-2.2923310753"><ele>232.78</ele><time>2015-07-22T10:55:01Z</time></trkpt><trkpt lat="51.7014941107" lon="-2.2923625074"><ele>234.22</ele><time>2015-07-22T10:55:03Z</time></trkpt><trkpt lat="51.7014265526" lon="-2.2924863081"><ele>234.22</ele><time>2015-07-22T10:55:14Z</time></trkpt><trkpt lat="51.7013988923" lon="-2.2925750725"><ele>235.18</ele><time>2015-07-22T10:55:19Z</time></trkpt><trkpt lat="51.7013719026" lon="-2.2926565446"><ele>239.02</ele><time>2015-07-22T10:55:24Z</time></trkpt><trkpt lat="51.7013659514" lon="-2.2926710453"><ele>234.22</ele><time>2015-07-22T10:55:25Z</time></trkpt><trkpt lat="51.7013301607" lon="-2.2927277070"><ele>238.54</ele><time>2015-07-22T10:55:29Z</time></trkpt><trkpt lat="51.7013231199" lon="-2.2927398607"><ele>234.70</ele><time>2015-07-22T10:55:30Z</time></trkpt><trkpt lat="51.7013150733" lon="-2.2927512601"><ele>235.18</ele><time>2015-07-22T10:55:31Z</time></trkpt><trkpt lat="51.7012895923" lon="-2.2927924991"><ele>239.02</ele><time>2015-07-22T10:55:34Z</time></trkpt><trkpt lat="51.7012822162" lon="-2.2928038146"><ele>238.54</ele><time>2015-07-22T10:55:35Z</time></trkpt><trkpt lat="51.7012693081" lon="-2.2928297985"><ele>235.18</ele><time>2015-07-22T10:55:37Z</time></trkpt><trkpt lat="51.7012616806" lon="-2.2928457242"><ele>237.10</ele><time>2015-07-22T10:55:38Z</time></trkpt><trkpt lat="51.7011580803" lon="-2.2930701915"><ele>240.95</ele><time>2015-07-22T10:55:56Z</time></trkpt><trkpt lat="51.7011427414" lon="-2.2931017913"><ele>237.58</ele><time>2015-07-22T10:56:07Z</time></trkpt><trkpt lat="51.7011288274" lon="-2.2931204829"><ele>241.43</ele><time>2015-07-22T10:56:12Z</time></trkpt><trkpt lat="51.7010940425" lon="-2.2931828443"><ele>238.06</ele><time>2015-07-22T10:56:18Z</time></trkpt><trkpt lat="51.7010810506" lon="-2.2932226583"><ele>241.43</ele><time>2015-07-22T10:56:21Z</time></trkpt><trkpt lat="51.7010238860" lon="-2.2934051324"><ele>241.43</ele><time>2015-07-22T10:56:36Z</time></trkpt><trkpt lat="51.7010254785" lon="-2.2934921365"><ele>240.95</ele><time>2015-07-22T10:56:52Z</time></trkpt><trkpt lat="51.7010180186" lon="-2.2935211379"><ele>241.43</ele><time>2015-07-22T10:57:20Z</time></trkpt><trkpt lat="51.7009827308" lon="-2.2935696691"><ele>240.95</ele><time>2015-07-22T10:57:42Z</time></trkpt><trkpt lat="51.7009731755" lon="-2.2936736885"><ele>241.43</ele><time>2015-07-22T10:58:05Z</time></trkpt><trkpt lat="51.7009417433" lon="-2.2936470341"><ele>232.30</ele><time>2015-07-22T10:58:10Z</time></trkpt><trkpt lat="51.7009428330" lon="-2.2936539073"><ele>242.87</ele><time>2015-07-22T10:58:11Z</time></trkpt><trkpt lat="51.7009544000" lon="-2.2936687432"><ele>239.51</ele><time>2015-07-22T10:58:14Z</time></trkpt><trkpt lat="51.7009386420" lon="-2.2938529775"><ele>239.02</ele><time>2015-07-22T10:58:33Z</time></trkpt><trkpt lat="51.7008347902" lon="-2.2940299194"><ele>236.14</ele><time>2015-07-22T10:58:50Z</time></trkpt><trkpt lat="51.7007975746" lon="-2.2942557279"><ele>232.78</ele><time>2015-07-22T10:59:11Z</time></trkpt><trkpt lat="51.7006777972" lon="-2.2941661254"><ele>231.33</ele><time>2015-07-22T10:59:31Z</time></trkpt><trkpt lat="51.7005710956" lon="-2.2940903530"><ele>230.85</ele><time>2015-07-22T10:59:56Z</time></trkpt><trkpt lat="51.7005570140" lon="-2.2941113077"><ele>235.18</ele><time>2015-07-22T11:00:08Z</time></trkpt><trkpt lat="51.7005569302" lon="-2.2941113077"><ele>231.81</ele><time>2015-07-22T11:00:09Z</time></trkpt><trkpt lat="51.7005561758" lon="-2.2941020038"><ele>230.37</ele><time>2015-07-22T11:00:11Z</time></trkpt><trkpt lat="51.7004974186" lon="-2.2940829769"><ele>227.49</ele><time>2015-07-22T11:00:30Z</time></trkpt><trkpt lat="51.7004935630" lon="-2.2941519599"><ele>227.01</ele><time>2015-07-22T11:00:53Z</time></trkpt><trkpt lat="51.7004675791" lon="-2.2942612600"><ele>224.61</ele><time>2015-07-22T11:01:08Z</time></trkpt><trkpt lat="51.7003943212" lon="-2.2943924367"><ele>221.24</ele><time>2015-07-22T11:01:21Z</time></trkpt><trkpt lat="51.7003335524" lon="-2.2945577279"><ele>217.88</ele><time>2015-07-22T11:01:39Z</time></trkpt><trkpt lat="51.7003275175" lon="-2.2945899982"><ele>215.47</ele><time>2015-07-22T11:01:58Z</time></trkpt><trkpt lat="51.7002147809" lon="-2.2947117873"><ele>212.59</ele><time>2015-07-22T11:02:14Z</time></trkpt><trkpt lat="51.7001255974" lon="-2.2947517689"><ele>209.22</ele><time>2015-07-22T11:02:30Z</time></trkpt><trkpt lat="51.7001009546" lon="-2.2947697062"><ele>206.34</ele><time>2015-07-22T11:02:46Z</time></trkpt><trkpt lat="51.6999562830" lon="-2.2948836163"><ele>203.46</ele><time>2015-07-22T11:03:03Z</time></trkpt><trkpt lat="51.6998770740" lon="-2.2949318122"><ele>200.09</ele><time>2015-07-22T11:03:13Z</time></trkpt><trkpt lat="51.6998770740" lon="-2.2949327342"><ele>200.09</ele><time>2015-07-22T11:03:14Z</time></trkpt><trkpt lat="51.6998582985" lon="-2.2949443012"><ele>197.21</ele><time>2015-07-22T11:03:23Z</time></trkpt><trkpt lat="51.6997966915" lon="-2.2949994542"><ele>193.84</ele><time>2015-07-22T11:03:29Z</time></trkpt><trkpt lat="51.6996536124" lon="-2.2950268630"><ele>190.96</ele><time>2015-07-22T11:03:38Z</time></trkpt><trkpt lat="51.6995685361" lon="-2.2950898111"><ele>190.00</ele><time>2015-07-22T11:03:57Z</time></trkpt><trkpt lat="51.6995448992" lon="-2.2950696107"><ele>186.15</ele><time>2015-07-22T11:04:16Z</time></trkpt><trkpt lat="51.6995448992" lon="-2.2950696107"><ele>193.36</ele><time>2015-07-22T11:04:17Z</time></trkpt><trkpt lat="51.6995448992" lon="-2.2950696945"><ele>189.04</ele><time>2015-07-22T11:04:18Z</time></trkpt><trkpt lat="51.6995173227" lon="-2.2950750589"><ele>190.00</ele><time>2015-07-22T11:04:41Z</time></trkpt><trkpt lat="51.6994921770" lon="-2.2950423695"><ele>190.00</ele><time>2015-07-22T11:05:03Z</time></trkpt><trkpt lat="51.6994048376" lon="-2.2950053215"><ele>190.96</ele><time>2015-07-22T11:05:16Z</time></trkpt><trkpt lat="51.6994494293" lon="-2.2950152960"><ele>190.00</ele><time>2015-07-22T11:05:35Z</time></trkpt><trkpt lat="51.6995111201" lon="-2.2949304711"><ele>188.08</ele><time>2015-07-22T11:05:52Z</time></trkpt><trkpt lat="51.6995091084" lon="-2.2947561275"><ele>186.63</ele><time>2015-07-22T11:06:11Z</time></trkpt><trkpt lat="51.6993863136" lon="-2.2946644295"><ele>185.67</ele><time>2015-07-22T11:06:34Z</time></trkpt><trkpt lat="51.6993530374" lon="-2.2946177423"><ele>185.19</ele><time>2015-07-22T11:07:04Z</time></trkpt><trkpt lat="51.6993119661" lon="-2.2945763357"><ele>182.79</ele><time>2015-07-22T11:07:28Z</time></trkpt><trkpt lat="51.6992778517" lon="-2.2945765872"><ele>181.35</ele><time>2015-07-22T11:07:33Z</time></trkpt><trkpt lat="51.6992377862" lon="-2.2946131323"><ele>181.83</ele><time>2015-07-22T11:07:49Z</time></trkpt><trkpt lat="51.6992335953" lon="-2.2946095280"><ele>181.83</ele><time>2015-07-22T11:07:50Z</time></trkpt><trkpt lat="51.6991805378" lon="-2.2945811134"><ele>179.90</ele><time>2015-07-22T11:07:54Z</time></trkpt><trkpt lat="51.6989471018" lon="-2.2944273893"><ele>176.54</ele><time>2015-07-22T11:08:05Z</time></trkpt><trkpt lat="51.6988554876" lon="-2.2943916824"><ele>176.54</ele><time>2015-07-22T11:08:09Z</time></trkpt><trkpt lat="51.6986385640" lon="-2.2945288941"><ele>174.62</ele><time>2015-07-22T11:08:22Z</time></trkpt><trkpt lat="51.6986300144" lon="-2.2946648486"><ele>174.62</ele><time>2015-07-22T11:08:29Z</time></trkpt><trkpt lat="51.6985855065" lon="-2.2947257012"><ele>176.54</ele><time>2015-07-22T11:08:35Z</time></trkpt><trkpt lat="51.6985557508" lon="-2.2948361747"><ele>176.54</ele><time>2015-07-22T11:08:42Z</time></trkpt><trkpt lat="51.6985354666" lon="-2.2948473226"><ele>174.62</ele><time>2015-07-22T11:08:44Z</time></trkpt><trkpt lat="51.6983539145" lon="-2.2950084228"><ele>171.25</ele><time>2015-07-22T11:08:58Z</time></trkpt><trkpt lat="51.6982887872" lon="-2.2950627375"><ele>171.25</ele><time>2015-07-22T11:09:02Z</time></trkpt><trkpt lat="51.6981483903" lon="-2.2951945849"><ele>167.89</ele><time>2015-07-22T11:09:11Z</time></trkpt><trkpt lat="51.6979913134" lon="-2.2952623107"><ele>165.48</ele><time>2015-07-22T11:09:23Z</time></trkpt><trkpt lat="51.6979614738" lon="-2.2952748835"><ele>167.89</ele><time>2015-07-22T11:09:25Z</time></trkpt><trkpt lat="51.6979334783" lon="-2.2952944133"><ele>165.96</ele><time>2015-07-22T11:09:27Z</time></trkpt><trkpt lat="51.6978993639" lon="-2.2954123467"><ele>165.00</ele><time>2015-07-22T11:09:33Z</time></trkpt><trkpt lat="51.6977823526" lon="-2.2954871971"><ele>163.56</ele><time>2015-07-22T11:09:43Z</time></trkpt><trkpt lat="51.6976873856" lon="-2.2954986803"><ele>163.56</ele><time>2015-07-22T11:09:49Z</time></trkpt><trkpt lat="51.6975820251" lon="-2.2955503967"><ele>160.20</ele><time>2015-07-22T11:10:00Z</time></trkpt><trkpt lat="51.6975351702" lon="-2.2956289351"><ele>159.24</ele><time>2015-07-22T11:10:09Z</time></trkpt><trkpt lat="51.6973657720" lon="-2.2957244888"><ele>157.79</ele><time>2015-07-22T11:10:25Z</time></trkpt><trkpt lat="51.6971183382" lon="-2.2958395723"><ele>156.35</ele><time>2015-07-22T11:10:45Z</time></trkpt><trkpt lat="51.6969187651" lon="-2.2959821485"><ele>157.31</ele><time>2015-07-22T11:11:04Z</time></trkpt><trkpt lat="51.6968989838" lon="-2.2959871776"><ele>153.95</ele><time>2015-07-22T11:11:06Z</time></trkpt><trkpt lat="51.6968626063" lon="-2.2960005887"><ele>155.39</ele><time>2015-07-22T11:11:10Z</time></trkpt><trkpt lat="51.6967640352" lon="-2.2960676439"><ele>152.03</ele><time>2015-07-22T11:11:21Z</time></trkpt><trkpt lat="51.6966771148" lon="-2.2960992437"><ele>151.54</ele><time>2015-07-22T11:11:28Z</time></trkpt><trkpt lat="51.6965383105" lon="-2.2960395645"><ele>151.06</ele><time>2015-07-22T11:11:37Z</time></trkpt><trkpt lat="51.6965138353" lon="-2.2960527241"><ele>152.51</ele><time>2015-07-22T11:11:39Z</time></trkpt><trkpt lat="51.6963886935" lon="-2.2961859964"><ele>150.10</ele><time>2015-07-22T11:11:52Z</time></trkpt><trkpt lat="51.6963737737" lon="-2.2962033469"><ele>151.54</ele><time>2015-07-22T11:11:54Z</time></trkpt><trkpt lat="51.6963124182" lon="-2.2961980663"><ele>148.66</ele><time>2015-07-22T11:11:59Z</time></trkpt><trkpt lat="51.6962657310" lon="-2.2961901035"><ele>151.06</ele><time>2015-07-22T11:12:02Z</time></trkpt><trkpt lat="51.6962154396" lon="-2.2962235473"><ele>148.18</ele><time>2015-07-22T11:12:07Z</time></trkpt><trkpt lat="51.6961562634" lon="-2.2962496150"><ele>148.66</ele><time>2015-07-22T11:12:13Z</time></trkpt><trkpt lat="51.6961438581" lon="-2.2962593380"><ele>150.10</ele><time>2015-07-22T11:12:15Z</time></trkpt><trkpt lat="51.6961120907" lon="-2.2962668817"><ele>147.22</ele><time>2015-07-22T11:12:18Z</time></trkpt><trkpt lat="51.6960384976" lon="-2.2962605115"><ele>150.58</ele><time>2015-07-22T11:12:24Z</time></trkpt><trkpt lat="51.6959932353" lon="-2.2962313425"><ele>147.22</ele><time>2015-07-22T11:12:26Z</time></trkpt><trkpt lat="51.6959815007" lon="-2.2962336894"><ele>147.70</ele><time>2015-07-22T11:12:27Z</time></trkpt><trkpt lat="51.6958954185" lon="-2.2963599209"><ele>149.14</ele><time>2015-07-22T11:12:38Z</time></trkpt><trkpt lat="51.6958764754" lon="-2.2963719908"><ele>145.30</ele><time>2015-07-22T11:12:40Z</time></trkpt><trkpt lat="51.6957519203" lon="-2.2964544687"><ele>148.66</ele><time>2015-07-22T11:12:56Z</time></trkpt><trkpt lat="51.6957322229" lon="-2.2964581568"><ele>145.78</ele><time>2015-07-22T11:12:58Z</time></trkpt><trkpt lat="51.6955497488" lon="-2.2964809556"><ele>145.30</ele><time>2015-07-22T11:13:16Z</time></trkpt><trkpt lat="51.6954447236" lon="-2.2965010721"><ele>145.30</ele><time>2015-07-22T11:13:34Z</time></trkpt><trkpt lat="51.6952875629" lon="-2.2965314146"><ele>142.89</ele><time>2015-07-22T11:13:50Z</time></trkpt><trkpt lat="51.6952641774" lon="-2.2965398803"><ele>142.89</ele><time>2015-07-22T11:13:54Z</time></trkpt><trkpt lat="51.6952439770" lon="-2.2965489328"><ele>143.85</ele><time>2015-07-22T11:13:56Z</time></trkpt><trkpt lat="51.6952159815" lon="-2.2965743300"><ele>140.49</ele><time>2015-07-22T11:13:59Z</time></trkpt><trkpt lat="51.6951600742" lon="-2.2965703066"><ele>143.37</ele><time>2015-07-22T11:14:05Z</time></trkpt><trkpt lat="51.6951441485" lon="-2.2965787724"><ele>141.45</ele><time>2015-07-22T11:14:07Z</time></trkpt><trkpt lat="51.6949926876" lon="-2.2966994718"><ele>140.97</ele><time>2015-07-22T11:14:24Z</time></trkpt><trkpt lat="51.6949708946" lon="-2.2967388667"><ele>135.20</ele><time>2015-07-22T11:14:29Z</time></trkpt><trkpt lat="51.6949700564" lon="-2.2967437282"><ele>142.89</ele><time>2015-07-22T11:14:30Z</time></trkpt><trkpt lat="51.6949707270" lon="-2.2967433091"><ele>127.99</ele><time>2015-07-22T11:14:31Z</time></trkpt><trkpt lat="51.6949713137" lon="-2.2967433929"><ele>147.70</ele><time>2015-07-22T11:14:32Z</time></trkpt><trkpt lat="51.6949718166" lon="-2.2967433091"><ele>139.05</ele><time>2015-07-22T11:14:33Z</time></trkpt><trkpt lat="51.6949621774" lon="-2.2967230249"><ele>140.01</ele><time>2015-07-22T11:14:55Z</time></trkpt><trkpt lat="51.6949591599" lon="-2.2967394534"><ele>140.01</ele><time>2015-07-22T11:15:16Z</time></trkpt><trkpt lat="51.6949561425" lon="-2.2967586480"><ele>140.49</ele><time>2015-07-22T11:15:41Z</time></trkpt><trkpt lat="51.6949490178" lon="-2.2967649344"><ele>139.53</ele><time>2015-07-22T11:16:00Z</time></trkpt><trkpt lat="51.6949035879" lon="-2.2967547923"><ele>139.53</ele><time>2015-07-22T11:16:05Z</time></trkpt><trkpt lat="51.6946774442" lon="-2.2967506852"><ele>139.05</ele><time>2015-07-22T11:16:21Z</time></trkpt><trkpt lat="51.6946159210" lon="-2.2967639286"><ele>137.13</ele><time>2015-07-22T11:16:36Z</time></trkpt><trkpt lat="51.6945459321" lon="-2.2967841290"><ele>138.09</ele><time>2015-07-22T11:16:42Z</time></trkpt><trkpt lat="51.6945285816" lon="-2.2968018986"><ele>138.09</ele><time>2015-07-22T11:16:44Z</time></trkpt><trkpt lat="51.6943692416" lon="-2.2969330754"><ele>138.57</ele><time>2015-07-22T11:17:01Z</time></trkpt><trkpt lat="51.6943378095" lon="-2.2969495039"><ele>135.68</ele><time>2015-07-22T11:17:04Z</time></trkpt><trkpt lat="51.6941798106" lon="-2.2971149627"><ele>136.64</ele><time>2015-07-22T11:17:21Z</time></trkpt><trkpt lat="51.6941538267" lon="-2.2971287090"><ele>135.20</ele><time>2015-07-22T11:17:24Z</time></trkpt><trkpt lat="51.6940541659" lon="-2.2972380091"><ele>120.30</ele><time>2015-07-22T11:17:37Z</time></trkpt><trkpt lat="51.6940514836" lon="-2.2972368356"><ele>135.68</ele><time>2015-07-22T11:17:38Z</time></trkpt><trkpt lat="51.6940607876" lon="-2.2972845286"><ele>134.72</ele><time>2015-07-22T11:17:42Z</time></trkpt><trkpt lat="51.6940495558" lon="-2.2973823454"><ele>135.20</ele><time>2015-07-22T11:18:01Z</time></trkpt><trkpt lat="51.6940519866" lon="-2.2973820940"><ele>130.88</ele><time>2015-07-22T11:18:04Z</time></trkpt><trkpt lat="51.6940530762" lon="-2.2973821778"><ele>137.13</ele><time>2015-07-22T11:18:05Z</time></trkpt><trkpt lat="51.6940534953" lon="-2.2973822616"><ele>132.80</ele><time>2015-07-22T11:18:06Z</time></trkpt><trkpt lat="51.6940524057" lon="-2.2973842733"><ele>135.68</ele><time>2015-07-22T11:18:10Z</time></trkpt><trkpt lat="51.6940425150" lon="-2.2974061500"><ele>135.68</ele><time>2015-07-22T11:18:28Z</time></trkpt><trkpt lat="51.6940308642" lon="-2.2973981872"><ele>134.72</ele><time>2015-07-22T11:18:38Z</time></trkpt><trkpt lat="51.6939965822" lon="-2.2974605486"><ele>135.68</ele><time>2015-07-22T11:18:43Z</time></trkpt><trkpt lat="51.6939763818" lon="-2.2975265980"><ele>134.72</ele><time>2015-07-22T11:18:47Z</time></trkpt><trkpt lat="51.6939711850" lon="-2.2975427750"><ele>137.61</ele><time>2015-07-22T11:18:48Z</time></trkpt><trkpt lat="51.6939643119" lon="-2.2975571081"><ele>137.61</ele><time>2015-07-22T11:18:49Z</time></trkpt><trkpt lat="51.6939298622" lon="-2.2975911386"><ele>136.64</ele><time>2015-07-22T11:18:54Z</time></trkpt><trkpt lat="51.6939136013" lon="-2.2976282705"><ele>134.72</ele><time>2015-07-22T11:19:01Z</time></trkpt><trkpt lat="51.6937799100" lon="-2.2978246585"><ele>140.97</ele><time>2015-07-22T11:19:19Z</time></trkpt><trkpt lat="51.6937720310" lon="-2.2978460323"><ele>136.64</ele><time>2015-07-22T11:19:21Z</time></trkpt><trkpt lat="51.6937080771" lon="-2.2979367245"><ele>140.49</ele><time>2015-07-22T11:19:30Z</time></trkpt><trkpt lat="51.6936895531" lon="-2.2979557514"><ele>136.16</ele><time>2015-07-22T11:19:32Z</time></trkpt><trkpt lat="51.6936582047" lon="-2.2979870159"><ele>140.01</ele><time>2015-07-22T11:19:35Z</time></trkpt><trkpt lat="51.6935909819" lon="-2.2980202921"><ele>135.20</ele><time>2015-07-22T11:19:52Z</time></trkpt><trkpt lat="51.6935905628" lon="-2.2980201244"><ele>144.82</ele><time>2015-07-22T11:19:53Z</time></trkpt><trkpt lat="51.6935903952" lon="-2.2980198730"><ele>136.64</ele><time>2015-07-22T11:19:54Z</time></trkpt><trkpt lat="51.6935907304" lon="-2.2980197053"><ele>159.72</ele><time>2015-07-22T11:19:55Z</time></trkpt><trkpt lat="51.6935910657" lon="-2.2980196215"><ele>134.24</ele><time>2015-07-22T11:19:56Z</time></trkpt><trkpt lat="51.6935908142" lon="-2.2980197053"><ele>140.49</ele><time>2015-07-22T11:19:57Z</time></trkpt><trkpt lat="51.6935903952" lon="-2.2980201244"><ele>140.01</ele><time>2015-07-22T11:19:58Z</time></trkpt><trkpt lat="51.6935469769" lon="-2.2980343737"><ele>138.57</ele><time>2015-07-22T11:20:17Z</time></trkpt><trkpt lat="51.6935562808" lon="-2.2980478685"><ele>138.57</ele><time>2015-07-22T11:20:43Z</time></trkpt><trkpt lat="51.6934939194" lon="-2.2981089726"><ele>138.57</ele><time>2015-07-22T11:21:00Z</time></trkpt><trkpt lat="51.6934598889" lon="-2.2981053684"><ele>138.57</ele><time>2015-07-22T11:21:05Z</time></trkpt><trkpt lat="51.6932386067" lon="-2.2981852479"><ele>136.16</ele><time>2015-07-22T11:21:24Z</time></trkpt><trkpt lat="51.6931591462" lon="-2.2981983237"><ele>136.16</ele><time>2015-07-22T11:21:31Z</time></trkpt><trkpt lat="51.6931520216" lon="-2.2982068732"><ele>137.61</ele><time>2015-07-22T11:21:32Z</time></trkpt><trkpt lat="51.6931401193" lon="-2.2982433345"><ele>139.05</ele><time>2015-07-22T11:21:34Z</time></trkpt><trkpt lat="51.6931381915" lon="-2.2982626967"><ele>135.20</ele><time>2015-07-22T11:21:35Z</time></trkpt><trkpt lat="51.6931383591" lon="-2.2982784547"><ele>140.01</ele><time>2015-07-22T11:21:36Z</time></trkpt><trkpt lat="51.6931359284" lon="-2.2982951347"><ele>136.16</ele><time>2015-07-22T11:21:37Z</time></trkpt><trkpt lat="51.6930922586" lon="-2.2983610164"><ele>137.13</ele><time>2015-07-22T11:21:44Z</time></trkpt><trkpt lat="51.6929747444" lon="-2.2984347772"><ele>138.57</ele><time>2015-07-22T11:21:56Z</time></trkpt><trkpt lat="51.6928546317" lon="-2.2984627727"><ele>136.64</ele><time>2015-07-22T11:22:07Z</time></trkpt><trkpt lat="51.6927211080" lon="-2.2985610086"><ele>139.05</ele><time>2015-07-22T11:22:22Z</time></trkpt><trkpt lat="51.6927116364" lon="-2.2985584941"><ele>135.68</ele><time>2015-07-22T11:22:23Z</time></trkpt><trkpt lat="51.6926651169" lon="-2.2985739168"><ele>139.53</ele><time>2015-07-22T11:22:28Z</time></trkpt><trkpt lat="51.6926057730" lon="-2.2985792812"><ele>138.09</ele><time>2015-07-22T11:22:33Z</time></trkpt><trkpt lat="51.6924617719" lon="-2.2986354399"><ele>137.61</ele><time>2015-07-22T11:22:48Z</time></trkpt><trkpt lat="51.6923060361" lon="-2.2986951191"><ele>136.64</ele><time>2015-07-22T11:23:04Z</time></trkpt><trkpt lat="51.6922523081" lon="-2.2987174988"><ele>135.68</ele><time>2015-07-22T11:23:09Z</time></trkpt><trkpt lat="51.6920790542" lon="-2.2987744119"><ele>135.20</ele><time>2015-07-22T11:23:26Z</time></trkpt><trkpt lat="51.6920492146" lon="-2.2987884097"><ele>133.76</ele><time>2015-07-22T11:23:29Z</time></trkpt><trkpt lat="51.6919780523" lon="-2.2988123819"><ele>133.28</ele><time>2015-07-22T11:23:36Z</time></trkpt><trkpt lat="51.6918388288" lon="-2.2989027388"><ele>132.80</ele><time>2015-07-22T11:23:50Z</time></trkpt><trkpt lat="51.6917603742" lon="-2.2989271302"><ele>132.80</ele><time>2015-07-22T11:23:57Z</time></trkpt><trkpt lat="51.6916619707" lon="-2.2989682015"><ele>131.84</ele><time>2015-07-22T11:24:12Z</time></trkpt><trkpt lat="51.6916612163" lon="-2.2989787627"><ele>131.84</ele><time>2015-07-22T11:24:36Z</time></trkpt><trkpt lat="51.6916541755" lon="-2.2989898268"><ele>132.32</ele><time>2015-07-22T11:24:55Z</time></trkpt><trkpt lat="51.6915058158" lon="-2.2990705445"><ele>131.84</ele><time>2015-07-22T11:25:12Z</time></trkpt><trkpt lat="51.6914260201" lon="-2.2991195787"><ele>129.92</ele><time>2015-07-22T11:25:22Z</time></trkpt><trkpt lat="51.6912967712" lon="-2.2991518490"><ele>130.40</ele><time>2015-07-22T11:25:34Z</time></trkpt><trkpt lat="51.6912697814" lon="-2.2991517652"><ele>130.40</ele><time>2015-07-22T11:25:36Z</time></trkpt><trkpt lat="51.6911384370" lon="-2.2992312256"><ele>129.92</ele><time>2015-07-22T11:25:50Z</time></trkpt><trkpt lat="51.6909801867" lon="-2.2992555331"><ele>126.55</ele><time>2015-07-22T11:26:06Z</time></trkpt><trkpt lat="51.6909461562" lon="-2.2992648371"><ele>127.99</ele><time>2015-07-22T11:26:10Z</time></trkpt><trkpt lat="51.6909021512" lon="-2.2992813494"><ele>127.51</ele><time>2015-07-22T11:26:15Z</time></trkpt><trkpt lat="51.6907558870" lon="-2.2993655037"><ele>128.95</ele><time>2015-07-22T11:26:29Z</time></trkpt><trkpt lat="51.6906050965" lon="-2.2994525917"><ele>129.43</ele><time>2015-07-22T11:26:46Z</time></trkpt><trkpt lat="51.6905939486" lon="-2.2994611412"><ele>129.43</ele><time>2015-07-22T11:26:47Z</time></trkpt><trkpt lat="51.6905513685" lon="-2.2995027993"><ele>128.95</ele><time>2015-07-22T11:26:52Z</time></trkpt><trkpt lat="51.6904731654" lon="-2.2995483968"><ele>129.43</ele><time>2015-07-22T11:27:01Z</time></trkpt><trkpt lat="51.6903278232" lon="-2.2996240016"><ele>126.55</ele><time>2015-07-22T11:27:18Z</time></trkpt><trkpt lat="51.6903176811" lon="-2.2996276058"><ele>127.99</ele><time>2015-07-22T11:27:19Z</time></trkpt><trkpt lat="51.6903023422" lon="-2.2996397596"><ele>131.84</ele><time>2015-07-22T11:27:21Z</time></trkpt><trkpt lat="51.6902941279" lon="-2.2996468842"><ele>128.47</ele><time>2015-07-22T11:27:22Z</time></trkpt><trkpt lat="51.6902862489" lon="-2.2996485606"><ele>127.99</ele><time>2015-07-22T11:27:23Z</time></trkpt><trkpt lat="51.6901688185" lon="-2.2997187171"><ele>131.36</ele><time>2015-07-22T11:27:36Z</time></trkpt><trkpt lat="51.6901621968" lon="-2.2997239139"><ele>126.07</ele><time>2015-07-22T11:27:38Z</time></trkpt><trkpt lat="51.6901579220" lon="-2.2997261770"><ele>129.92</ele><time>2015-07-22T11:27:39Z</time></trkpt><trkpt lat="51.6900939681" lon="-2.2997542564"><ele>131.36</ele><time>2015-07-22T11:27:47Z</time></trkpt><trkpt lat="51.6900480352" lon="-2.2997592855"><ele>134.72</ele><time>2015-07-22T11:27:53Z</time></trkpt><trkpt lat="51.6900394857" lon="-2.2997628897"><ele>130.88</ele><time>2015-07-22T11:27:54Z</time></trkpt><trkpt lat="51.6899481229" lon="-2.2998130973"><ele>134.24</ele><time>2015-07-22T11:28:04Z</time></trkpt><trkpt lat="51.6899244860" lon="-2.2998198867"><ele>130.40</ele><time>2015-07-22T11:28:06Z</time></trkpt><trkpt lat="51.6899142601" lon="-2.2998224851"><ele>132.32</ele><time>2015-07-22T11:28:07Z</time></trkpt><trkpt lat="51.6898805648" lon="-2.2998281009"><ele>133.28</ele><time>2015-07-22T11:28:11Z</time></trkpt><trkpt lat="51.6896625515" lon="-2.2999029513"><ele>132.32</ele><time>2015-07-22T11:28:33Z</time></trkpt><trkpt lat="51.6895519104" lon="-2.2998910490"><ele>128.95</ele><time>2015-07-22T11:28:43Z</time></trkpt><trkpt lat="51.6895255912" lon="-2.2998985089"><ele>131.84</ele><time>2015-07-22T11:28:45Z</time></trkpt><trkpt lat="51.6894326359" lon="-2.2999331262"><ele>130.88</ele><time>2015-07-22T11:29:01Z</time></trkpt><trkpt lat="51.6894281935" lon="-2.2998753749"><ele>131.36</ele><time>2015-07-22T11:29:22Z</time></trkpt><trkpt lat="51.6893920675" lon="-2.2998765483"><ele>131.84</ele><time>2015-07-22T11:29:42Z</time></trkpt><trkpt lat="51.6894169617" lon="-2.2998978384"><ele>113.57</ele><time>2015-07-22T11:30:02Z</time></trkpt><trkpt lat="51.6894165426" lon="-2.2999012750"><ele>173.17</ele><time>2015-07-22T11:30:03Z</time></trkpt><trkpt lat="51.6894167103" lon="-2.2999014426"><ele>133.28</ele><time>2015-07-22T11:30:04Z</time></trkpt><trkpt lat="51.6893680114" lon="-2.2999359760"><ele>130.88</ele><time>2015-07-22T11:30:18Z</time></trkpt><trkpt lat="51.6892608907" lon="-2.2999453638"><ele>128.95</ele><time>2015-07-22T11:30:33Z</time></trkpt><trkpt lat="51.6891896445" lon="-2.2999860160"><ele>129.43</ele><time>2015-07-22T11:30:54Z</time></trkpt><trkpt lat="51.6891945060" lon="-2.3000039533"><ele>128.95</ele><time>2015-07-22T11:31:18Z</time></trkpt><trkpt lat="51.6892000381" lon="-2.3000633810"><ele>128.95</ele><time>2015-07-22T11:31:36Z</time></trkpt><trkpt lat="51.6892292909" lon="-2.3001258262"><ele>118.38</ele><time>2015-07-22T11:31:41Z</time></trkpt><trkpt lat="51.6892297100" lon="-2.3001399916"><ele>134.24</ele><time>2015-07-22T11:31:42Z</time></trkpt><trkpt lat="51.6892289557" lon="-2.3001381475"><ele>125.11</ele><time>2015-07-22T11:31:43Z</time></trkpt><trkpt lat="51.6892263573" lon="-2.3001267482"><ele>134.24</ele><time>2015-07-22T11:31:44Z</time></trkpt><trkpt lat="51.6892188974" lon="-2.3001120798"><ele>128.47</ele><time>2015-07-22T11:31:45Z</time></trkpt><trkpt lat="51.6891677678" lon="-2.3000928015"><ele>127.51</ele><time>2015-07-22T11:31:51Z</time></trkpt><trkpt lat="51.6890781652" lon="-2.3002478667"><ele>132.32</ele><time>2015-07-22T11:32:07Z</time></trkpt><trkpt lat="51.6890719626" lon="-2.3002678994"><ele>130.88</ele><time>2015-07-22T11:32:09Z</time></trkpt><trkpt lat="51.6890208330" lon="-2.3003978189"><ele>131.84</ele><time>2015-07-22T11:32:18Z</time></trkpt><trkpt lat="51.6890168097" lon="-2.3004087154"><ele>127.99</ele><time>2015-07-22T11:32:19Z</time></trkpt><trkpt lat="51.6889705416" lon="-2.3004727531"><ele>132.32</ele><time>2015-07-22T11:32:24Z</time></trkpt><trkpt lat="51.6889636684" lon="-2.3004849069"><ele>128.95</ele><time>2015-07-22T11:32:25Z</time></trkpt><trkpt lat="51.6889546160" lon="-2.3005259782"><ele>132.80</ele><time>2015-07-22T11:32:28Z</time></trkpt><trkpt lat="51.6889194120" lon="-2.3005857412"><ele>131.36</ele><time>2015-07-22T11:32:33Z</time></trkpt><trkpt lat="51.6888712160" lon="-2.3006635252"><ele>135.20</ele><time>2015-07-22T11:32:39Z</time></trkpt><trkpt lat="51.6888630856" lon="-2.3006747570"><ele>129.92</ele><time>2015-07-22T11:32:40Z</time></trkpt><trkpt lat="51.6888358444" lon="-2.3007072788"><ele>133.28</ele><time>2015-07-22T11:32:43Z</time></trkpt><trkpt lat="51.6886520293" lon="-2.3008936923"><ele>133.28</ele><time>2015-07-22T11:33:03Z</time></trkpt><trkpt lat="51.6885166615" lon="-2.3010209296"><ele>132.80</ele><time>2015-07-22T11:33:18Z</time></trkpt><trkpt lat="51.6884947848" lon="-2.3010365199"><ele>133.76</ele><time>2015-07-22T11:33:20Z</time></trkpt><trkpt lat="51.6884373687" lon="-2.3010321613"><ele>132.80</ele><time>2015-07-22T11:33:25Z</time></trkpt><trkpt lat="51.6884034220" lon="-2.3010516912"><ele>134.72</ele><time>2015-07-22T11:33:28Z</time></trkpt><trkpt lat="51.6883846465" lon="-2.3010576423"><ele>130.88</ele><time>2015-07-22T11:33:30Z</time></trkpt><trkpt lat="51.6883653682" lon="-2.3010770045"><ele>134.24</ele><time>2015-07-22T11:33:32Z</time></trkpt><trkpt lat="51.6883512866" lon="-2.3011171538"><ele>134.72</ele><time>2015-07-22T11:33:49Z</time></trkpt><trkpt lat="51.6882128175" lon="-2.3011490051"><ele>135.68</ele><time>2015-07-22T11:34:07Z</time></trkpt><trkpt lat="51.6882048547" lon="-2.3011574708"><ele>132.32</ele><time>2015-07-22T11:34:08Z</time></trkpt><trkpt lat="51.6881813854" lon="-2.3011771683"><ele>136.16</ele><time>2015-07-22T11:34:11Z</time></trkpt><trkpt lat="51.6881460976" lon="-2.3011889029"><ele>132.80</ele><time>2015-07-22T11:34:15Z</time></trkpt><trkpt lat="51.6881320998" lon="-2.3011977877"><ele>136.16</ele><time>2015-07-22T11:34:17Z</time></trkpt><trkpt lat="51.6881258134" lon="-2.3012031522"><ele>136.16</ele><time>2015-07-22T11:34:18Z</time></trkpt><trkpt lat="51.6879311856" lon="-2.3013286293"><ele>133.76</ele><time>2015-07-22T11:34:40Z</time></trkpt><trkpt lat="51.6879058722" lon="-2.3013267014"><ele>138.09</ele><time>2015-07-22T11:34:43Z</time></trkpt><trkpt lat="51.6878270824" lon="-2.3013352510"><ele>135.20</ele><time>2015-07-22T11:34:51Z</time></trkpt><trkpt lat="51.6877782159" lon="-2.3013636656"><ele>136.16</ele><time>2015-07-22T11:34:56Z</time></trkpt><trkpt lat="51.6877632122" lon="-2.3013781663"><ele>137.61</ele><time>2015-07-22T11:34:58Z</time></trkpt><trkpt lat="51.6875757091" lon="-2.3014365043"><ele>140.01</ele><time>2015-07-22T11:35:19Z</time></trkpt><trkpt lat="51.6875710990" lon="-2.3014383484"><ele>137.13</ele><time>2015-07-22T11:35:20Z</time></trkpt><trkpt lat="51.6874927282" lon="-2.3014776595"><ele>140.49</ele><time>2015-07-22T11:35:30Z</time></trkpt><trkpt lat="51.6874845140" lon="-2.3014874663"><ele>137.13</ele><time>2015-07-22T11:35:31Z</time></trkpt><trkpt lat="51.6874272656" lon="-2.3016520031"><ele>138.57</ele><time>2015-07-22T11:35:52Z</time></trkpt><trkpt lat="51.6874285229" lon="-2.3016636539"><ele>140.49</ele><time>2015-07-22T11:35:57Z</time></trkpt><trkpt lat="51.6874223202" lon="-2.3016646598"><ele>136.64</ele><time>2015-07-22T11:35:58Z</time></trkpt><trkpt lat="51.6874125134" lon="-2.3016603012"><ele>138.57</ele><time>2015-07-22T11:35:59Z</time></trkpt><trkpt lat="51.6873981804" lon="-2.3016635701"><ele>141.93</ele><time>2015-07-22T11:36:01Z</time></trkpt><trkpt lat="51.6873884574" lon="-2.3016659170"><ele>138.57</ele><time>2015-07-22T11:36:02Z</time></trkpt><trkpt lat="51.6872828454" lon="-2.3016601335"><ele>139.05</ele><time>2015-07-22T11:36:10Z</time></trkpt><trkpt lat="51.6872706078" lon="-2.3016566131"><ele>140.01</ele><time>2015-07-22T11:36:11Z</time></trkpt><trkpt lat="51.6871057358" lon="-2.3017032165"><ele>140.49</ele><time>2015-07-22T11:36:29Z</time></trkpt><trkpt lat="51.6870152950" lon="-2.3017467186"><ele>140.01</ele><time>2015-07-22T11:36:37Z</time></trkpt><trkpt lat="51.6869157180" lon="-2.3017789889"><ele>140.01</ele><time>2015-07-22T11:36:46Z</time></trkpt><trkpt lat="51.6867378540" lon="-2.3018431105"><ele>138.57</ele><time>2015-07-22T11:37:07Z</time></trkpt><trkpt lat="51.6866593994" lon="-2.3018848523"><ele>138.09</ele><time>2015-07-22T11:37:13Z</time></trkpt><trkpt lat="51.6865619179" lon="-2.3019232415"><ele>137.61</ele><time>2015-07-22T11:37:23Z</time></trkpt><trkpt lat="51.6864704713" lon="-2.3018863611"><ele>137.61</ele><time>2015-07-22T11:37:30Z</time></trkpt><trkpt lat="51.6863393784" lon="-2.3019053042"><ele>139.53</ele><time>2015-07-22T11:37:43Z</time></trkpt><trkpt lat="51.6862357780" lon="-2.3019642290"><ele>137.61</ele><time>2015-07-22T11:37:50Z</time></trkpt><trkpt lat="51.6861753445" lon="-2.3020332959"><ele>135.68</ele><time>2015-07-22T11:37:56Z</time></trkpt><trkpt lat="51.6860524658" lon="-2.3022282589"><ele>133.28</ele><time>2015-07-22T11:38:14Z</time></trkpt><trkpt lat="51.6859202832" lon="-2.3022627085"><ele>133.76</ele><time>2015-07-22T11:38:29Z</time></trkpt><trkpt lat="51.6858982388" lon="-2.3022708390"><ele>133.28</ele><time>2015-07-22T11:38:32Z</time></trkpt><trkpt lat="51.6858875938" lon="-2.3022747785"><ele>134.72</ele><time>2015-07-22T11:38:33Z</time></trkpt><trkpt lat="51.6857498791" lon="-2.3023257405"><ele>131.84</ele><time>2015-07-22T11:38:50Z</time></trkpt></trkseg><trkseg><trkpt lat="51.6857645474" lon="-2.3018869478"><ele>133.28</ele><time>2015-07-22T11:39:31Z</time></trkpt><trkpt lat="51.6857601888" lon="-2.3020837549"><ele>133.76</ele><time>2015-07-22T11:39:39Z</time></trkpt><trkpt lat="51.6857326962" lon="-2.3021032847"><ele>130.88</ele><time>2015-07-22T11:39:47Z</time></trkpt><trkpt lat="51.6857015155" lon="-2.3020796478"><ele>130.40</ele><time>2015-07-22T11:39:53Z</time></trkpt><trkpt lat="51.6856984980" lon="-2.3020400014"><ele>131.36</ele><time>2015-07-22T11:39:55Z</time></trkpt><trkpt lat="51.6857035272" lon="-2.3020003550"><ele>132.32</ele><time>2015-07-22T11:39:57Z</time></trkpt><trkpt lat="51.6857152618" lon="-2.3018696811"><ele>131.84</ele><time>2015-07-22T11:40:05Z</time></trkpt></trkseg></trk></gpx>